Wetterdaten: Dienstag, 13.01.2015
Datum Zeit Temp. Aussen +5cm Feuchte Auss Luftdruck Regen Sonnenschein Regendauer Solar Windben
13.01.2015 00:00 9,5 C 8,3 C 84 % 1011,2 hPa 0,0 l/m 0 min 0 min 0 W/m 43,9 km/h (6 Bft)
13.01.2015 00:02 9,5 C 8,3 C 84 % 1011,1 hPa 0,0 l/m 0 min 0 min 0 W/m 54,4 km/h (7 Bft)
13.01.2015 00:05 9,6 C 8,3 C 84 % 1011,2 hPa 0,0 l/m 0 min 0 min 0 W/m 37,7 km/h (5 Bft)
13.01.2015 00:10 9,6 C 8,3 C 84 % 1011,1 hPa 0,0 l/m 0 min 0 min 0 W/m 41,8 km/h (6 Bft)
13.01.2015 00:12 9,6 C 8,3 C 83 % 1011,3 hPa 0,0 l/m 0 min 0 min 0 W/m 41,8 km/h (6 Bft)
13.01.2015 00:14 9,6 C 8,3 C 83 % 1011,2 hPa 0,0 l/m 0 min 0 min 0 W/m 37,7 km/h (5 Bft)
13.01.2015 00:16 9,6 C 8,3 C 83 % 1011,3 hPa 0,0 l/m 0 min 0 min 0 W/m 43,9 km/h (6 Bft)
13.01.2015 00:18 9,6 C 8,3 C 83 % 1011,2 hPa 0,0 l/m 0 min 0 min 0 W/m 43,9 km/h (6 Bft)
13.01.2015 00:20 9,6 C 8,3 C 83 % 1011,3 hPa 0,0 l/m 0 min 0 min 0 W/m 37,7 km/h (5 Bft)
13.01.2015 00:22 9,6 C 8,3 C 83 % 1011,1 hPa 0,0 l/m 0 min 0 min 0 W/m 39,7 km/h (6 Bft)
13.01.2015 00:24 9,6 C 8,3 C 83 % 1011,2 hPa 0,0 l/m 0 min 0 min 0 W/m 27,2 km/h (4 Bft)
13.01.2015 00:26 9,6 C 8,3 C 83 % 1011,2 hPa 0,0 l/m 0 min 0 min 0 W/m 39,7 km/h (6 Bft)
13.01.2015 00:28 9,6 C 8,3 C 83 % 1011,0 hPa 0,0 l/m 0 min 0 min 0 W/m 27,2 km/h (4 Bft)
13.01.2015 00:30 9,6 C 8,3 C 83 % 1011,1 hPa 0,0 l/m 0 min 0 min 0 W/m 27,2 km/h (4 Bft)
13.01.2015 00:32 9,6 C 8,3 C 83 % 1011,2 hPa 0,0 l/m 0 min 0 min 0 W/m 39,7 km/h (6 Bft)
13.01.2015 00:34 9,6 C 8,3 C 83 % 1011,1 hPa 0,0 l/m 0 min 0 min 0 W/m 27,2 km/h (4 Bft)
13.01.2015 00:36 9,6 C 8,3 C 83 % 1011,1 hPa 0,0 l/m 0 min 0 min 0 W/m 35,6 km/h (5 Bft)
13.01.2015 00:38 9,6 C 8,3 C 83 % 1011,0 hPa 0,0 l/m 0 min 0 min 0 W/m 46,0 km/h (6 Bft)
13.01.2015 00:40 9,6 C 8,3 C 83 % 1011,0 hPa 0,0 l/m 0 min 0 min 0 W/m 29,3 km/h (5 Bft)
13.01.2015 00:42 9,6 C 8,3 C 83 % 1011,0 hPa 0,0 l/m 0 min 0 min 0 W/m 25,1 km/h (4 Bft)
13.01.2015 00:44 9,6 C 8,3 C 83 % 1011,1 hPa 0,0 l/m 0 min 0 min 0 W/m 27,2 km/h (4 Bft)
13.01.2015 00:46 9,6 C 8,3 C 83 % 1011,0 hPa 0,0 l/m 0 min 0 min 0 W/m 35,6 km/h (5 Bft)
13.01.2015 00:48 9,6 C 8,3 C 83 % 1011,1 hPa 0,0 l/m 0 min 0 min 0 W/m 39,7 km/h (6 Bft)
13.01.2015 00:50 9,6 C 8,3 C 83 % 1011,0 hPa 0,0 l/m 0 min 0 min 0 W/m 41,8 km/h (6 Bft)
13.01.2015 00:52 9,6 C 8,3 C 83 % 1010,9 hPa 0,0 l/m 0 min 0 min 0 W/m 39,7 km/h (6 Bft)
13.01.2015 00:54 9,6 C 8,3 C 83 % 1011,0 hPa 0,0 l/m 0 min 0 min 0 W/m 31,4 km/h (5 Bft)
13.01.2015 00:56 9,5 C 8,3 C 83 % 1011,0 hPa 0,0 l/m 0 min 0 min 0 W/m 27,2 km/h (4 Bft)
13.01.2015 00:58 9,6 C 8,3 C 83 % 1011,0 hPa 0,0 l/m 0 min 0 min 0 W/m 37,7 km/h (5 Bft)
13.01.2015 01:00 9,6 C 8,3 C 83 % 1010,9 hPa 0,0 l/m 0 min 0 min 0 W/m 27,2 km/h (4 Bft)
13.01.2015 01:02 9,5 C 7,8 C 83 % 1011,0 hPa 0,0 l/m 0 min 0 min 0 W/m 31,4 km/h (5 Bft)
13.01.2015 01:04 9,5 C 8,3 C 83 % 1010,9 hPa 0,0 l/m 0 min 0 min 0 W/m 37,7 km/h (5 Bft)
13.01.2015 01:06 9,5 C 8,3 C 83 % 1011,0 hPa 0,0 l/m 0 min 0 min 0 W/m 39,7 km/h (6 Bft)
13.01.2015 01:08 9,5 C 7,8 C 83 % 1010,8 hPa 0,0 l/m 0 min 0 min 0 W/m 23,0 km/h (4 Bft)
13.01.2015 01:10 9,5 C 7,8 C 83 % 1010,8 hPa 0,0 l/m 0 min 0 min 0 W/m 31,4 km/h (5 Bft)
13.01.2015 01:12 9,5 C 7,8 C 83 % 1010,8 hPa 0,0 l/m 0 min 0 min 0 W/m 35,6 km/h (5 Bft)
13.01.2015 01:14 9,5 C 8,3 C 83 % 1010,9 hPa 0,0 l/m 0 min 0 min 0 W/m 41,8 km/h (6 Bft)
13.01.2015 01:16 9,5 C 8,3 C 83 % 1010,7 hPa 0,0 l/m 0 min 0 min 0 W/m 33,5 km/h (5 Bft)
13.01.2015 01:18 9,5 C 8,3 C 83 % 1010,8 hPa 0,0 l/m 0 min 0 min 0 W/m 37,7 km/h (5 Bft)
13.01.2015 01:20 9,5 C 8,3 C 83 % 1010,8 hPa 0,0 l/m 0 min 0 min 0 W/m 39,7 km/h (6 Bft)
13.01.2015 01:22 9,5 C 8,3 C 83 % 1010,7 hPa 0,0 l/m 0 min 0 min 0 W/m 35,6 km/h (5 Bft)
13.01.2015 01:24 9,5 C 8,3 C 83 % 1010,6 hPa 0,0 l/m 0 min 0 min 0 W/m 27,2 km/h (4 Bft)
13.01.2015 01:26 9,5 C 8,3 C 83 % 1010,7 hPa 0,0 l/m 0 min 0 min 0 W/m 46,0 km/h (6 Bft)
13.01.2015 01:28 9,5 C 8,3 C 83 % 1010,5 hPa 0,0 l/m 0 min 0 min 0 W/m 31,4 km/h (5 Bft)
13.01.2015 01:30 9,5 C 8,3 C 83 % 1010,5 hPa 0,0 l/m 0 min 0 min 0 W/m 39,7 km/h (6 Bft)
13.01.2015 01:32 9,5 C 8,3 C 83 % 1010,6 hPa 0,0 l/m 0 min 0 min 0 W/m 43,9 km/h (6 Bft)
13.01.2015 01:34 9,6 C 8,3 C 83 % 1010,7 hPa 0,0 l/m 0 min 0 min 0 W/m 33,5 km/h (5 Bft)
13.01.2015 01:36 9,6 C 8,3 C 83 % 1010,6 hPa 0,0 l/m 0 min 0 min 0 W/m 43,9 km/h (6 Bft)
13.01.2015 01:38 9,6 C 7,8 C 83 % 1010,5 hPa 0,0 l/m 0 min 0 min 0 W/m 25,1 km/h (4 Bft)
13.01.2015 01:40 9,5 C 7,8 C 83 % 1010,6 hPa 0,0 l/m 0 min 0 min 0 W/m 27,2 km/h (4 Bft)
13.01.2015 01:42 9,5 C 7,8 C 83 % 1010,5 hPa 0,0 l/m 0 min 0 min 0 W/m 31,4 km/h (5 Bft)
13.01.2015 01:44 9,5 C 7,8 C 83 % 1010,5 hPa 0,0 l/m 0 min 0 min 0 W/m 35,6 km/h (5 Bft)
13.01.2015 01:46 9,5 C 8,3 C 83 % 1010,5 hPa 0,0 l/m 0 min 0 min 0 W/m 31,4 km/h (5 Bft)
13.01.2015 01:48 9,5 C 8,3 C 83 % 1010,5 hPa 0,0 l/m 0 min 0 min 0 W/m 25,1 km/h (4 Bft)
13.01.2015 01:50 9,5 C 8,3 C 83 % 1010,5 hPa 0,0 l/m 0 min 0 min 0 W/m 29,3 km/h (5 Bft)
13.01.2015 01:52 9,5 C 8,3 C 83 % 1010,5 hPa 0,0 l/m 0 min 0 min 0 W/m 43,9 km/h (6 Bft)
13.01.2015 01:54 9,6 C 8,3 C 83 % 1010,4 hPa 0,0 l/m 0 min 0 min 0 W/m 33,5 km/h (5 Bft)
13.01.2015 01:56 9,6 C 8,3 C 83 % 1010,4 hPa 0,0 l/m 0 min 0 min 0 W/m 35,6 km/h (5 Bft)
13.01.2015 01:58 9,6 C 7,8 C 83 % 1010,3 hPa 0,0 l/m 0 min 2 min 0 W/m 27,2 km/h (4 Bft)
13.01.2015 02:00 9,6 C 7,8 C 83 % 1010,4 hPa 0,0 l/m 0 min 2 min 0 W/m 37,7 km/h (5 Bft)
13.01.2015 02:02 9,6 C 7,2 C 84 % 1010,4 hPa 0,0 l/m 0 min 2 min 0 W/m 39,7 km/h (6 Bft)
13.01.2015 02:04 9,5 C 7,2 C 84 % 1010,3 hPa 0,0 l/m 0 min 2 min 0 W/m 37,7 km/h (5 Bft)
13.01.2015 02:06 9,5 C 7,2 C 84 % 1010,5 hPa 0,0 l/m 0 min 2 min 0 W/m 39,7 km/h (6 Bft)
13.01.2015 02:08 9,5 C 7,2 C 84 % 1010,4 hPa 0,0 l/m 0 min 0 min 0 W/m 37,7 km/h (5 Bft)
13.01.2015 02:10 9,4 C 7,2 C 84 % 1010,4 hPa 0,0 l/m 0 min 0 min 0 W/m 35,6 km/h (5 Bft)
13.01.2015 02:12 9,4 C 7,2 C 84 % 1010,4 hPa 0,0 l/m 0 min 0 min 0 W/m 33,5 km/h (5 Bft)
13.01.2015 02:14 9,4 C 7,2 C 84 % 1010,3 hPa 0,0 l/m 0 min 0 min 0 W/m 27,2 km/h (4 Bft)
13.01.2015 02:16 9,4 C 7,2 C 84 % 1010,5 hPa 0,0 l/m 0 min 0 min 0 W/m 39,7 km/h (6 Bft)
13.01.2015 02:18 9,3 C 7,2 C 85 % 1010,3 hPa 0,0 l/m 0 min 0 min 0 W/m 43,9 km/h (6 Bft)
13.01.2015 02:20 9,3 C 7,2 C 85 % 1010,2 hPa 0,0 l/m 0 min 0 min 0 W/m 33,5 km/h (5 Bft)
13.01.2015 02:22 9,3 C 7,2 C 85 % 1010,2 hPa 0,0 l/m 0 min 0 min 0 W/m 41,8 km/h (6 Bft)
13.01.2015 02:24 9,3 C 7,2 C 85 % 1010,2 hPa 0,0 l/m 0 min 0 min 0 W/m 27,2 km/h (4 Bft)
13.01.2015 02:26 9,3 C 7,2 C 85 % 1010,2 hPa 0,0 l/m 0 min 0 min 0 W/m 35,6 km/h (5 Bft)
13.01.2015 02:28 9,3 C 7,2 C 85 % 1010,2 hPa 0,0 l/m 0 min 0 min 0 W/m 37,7 km/h (5 Bft)
13.01.2015 02:30 9,3 C 7,8 C 85 % 1010,2 hPa 0,0 l/m 0 min 0 min 0 W/m 29,3 km/h (5 Bft)
13.01.2015 02:32 9,3 C 7,8 C 85 % 1010,2 hPa 0,0 l/m 0 min 0 min 0 W/m 31,4 km/h (5 Bft)
13.01.2015 02:34 9,3 C 7,8 C 85 % 1010,1 hPa 0,0 l/m 0 min 0 min 0 W/m 27,2 km/h (4 Bft)
13.01.2015 02:36 9,4 C 7,8 C 85 % 1010,1 hPa 0,0 l/m 0 min 0 min 0 W/m 35,6 km/h (5 Bft)
13.01.2015 02:38 9,4 C 7,8 C 85 % 1010,2 hPa 0,0 l/m 0 min 0 min 0 W/m 39,7 km/h (6 Bft)
13.01.2015 02:40 9,4 C 7,8 C 84 % 1010,1 hPa 0,0 l/m 0 min 0 min 0 W/m 35,6 km/h (5 Bft)
13.01.2015 02:42 9,4 C 7,8 C 84 % 1010,1 hPa 0,0 l/m 0 min 0 min 0 W/m 46,0 km/h (6 Bft)
13.01.2015 02:44 9,4 C 7,8 C 84 % 1010,2 hPa 0,0 l/m 0 min 0 min 0 W/m 31,4 km/h (5 Bft)
13.01.2015 02:46 9,4 C 7,8 C 84 % 1010,0 hPa 0,0 l/m 0 min 0 min 0 W/m 43,9 km/h (6 Bft)
13.01.2015 02:48 9,4 C 7,8 C 84 % 1010,0 hPa 0,0 l/m 0 min 0 min 0 W/m 33,5 km/h (5 Bft)
13.01.2015 02:50 9,4 C 7,8 C 84 % 1010,0 hPa 0,0 l/m 0 min 0 min 0 W/m 27,2 km/h (4 Bft)
13.01.2015 02:52 9,4 C 7,8 C 84 % 1010,1 hPa 0,0 l/m 0 min 0 min 0 W/m 41,8 km/h (6 Bft)
13.01.2015 02:54 9,4 C 7,8 C 84 % 1009,9 hPa 0,0 l/m 0 min 0 min 0 W/m 37,7 km/h (5 Bft)
13.01.2015 02:56 9,4 C 7,8 C 84 % 1009,9 hPa 0,0 l/m 0 min 0 min 0 W/m 37,7 km/h (5 Bft)
13.01.2015 02:58 9,4 C 7,8 C 84 % 1010,0 hPa 0,0 l/m 0 min 0 min 0 W/m 52,3 km/h (7 Bft)
13.01.2015 03:00 9,4 C 7,8 C 84 % 1009,9 hPa 0,0 l/m 0 min 0 min 0 W/m 31,4 km/h (5 Bft)
13.01.2015 03:02 9,4 C 7,8 C 84 % 1009,8 hPa 0,0 l/m 0 min 0 min 0 W/m 25,1 km/h (4 Bft)
13.01.2015 03:04 9,4 C 7,8 C 84 % 1009,9 hPa 0,0 l/m 0 min 0 min 0 W/m 43,9 km/h (6 Bft)
13.01.2015 03:06 9,4 C 7,8 C 83 % 1009,7 hPa 0,0 l/m 0 min 0 min 0 W/m 33,5 km/h (5 Bft)
13.01.2015 03:08 9,4 C 7,8 C 83 % 1009,7 hPa 0,0 l/m 0 min 0 min 0 W/m 29,3 km/h (5 Bft)
13.01.2015 03:10 9,4 C 7,8 C 83 % 1009,6 hPa 0,0 l/m 0 min 0 min 0 W/m 62,8 km/h (8 Bft)
13.01.2015 03:12 9,4 C 7,8 C 83 % 1009,6 hPa 0,0 l/m 0 min 0 min 0 W/m 39,7 km/h (6 Bft)
13.01.2015 03:14 9,4 C 7,8 C 83 % 1009,6 hPa 0,0 l/m 0 min 0 min 0 W/m 29,3 km/h (5 Bft)
13.01.2015 03:16 9,4 C 7,8 C 83 % 1009,5 hPa 0,0 l/m 0 min 0 min 0 W/m 33,5 km/h (5 Bft)
13.01.2015 03:18 9,4 C 7,8 C 83 % 1009,5 hPa 0,0 l/m 0 min 0 min 0 W/m 46,0 km/h (6 Bft)
13.01.2015 03:20 9,4 C 7,8 C 83 % 1009,5 hPa 0,0 l/m 0 min 0 min 0 W/m 33,5 km/h (5 Bft)
13.01.2015 03:22 9,4 C 7,8 C 83 % 1009,3 hPa 0,0 l/m 0 min 0 min 0 W/m 23,0 km/h (4 Bft)
13.01.2015 03:24 9,4 C 7,8 C 83 % 1009,3 hPa 0,0 l/m 0 min 0 min 0 W/m 37,7 km/h (5 Bft)
13.01.2015 03:26 9,5 C 7,8 C 83 % 1009,2 hPa 0,0 l/m 0 min 0 min 0 W/m 37,7 km/h (5 Bft)
13.01.2015 03:28 9,4 C 7,8 C 83 % 1009,2 hPa 0,0 l/m 0 min 0 min 0 W/m 37,7 km/h (5 Bft)
13.01.2015 03:30 9,5 C 7,8 C 83 % 1009,2 hPa 0,0 l/m 0 min 0 min 0 W/m 33,5 km/h (5 Bft)
13.01.2015 03:32 9,5 C 7,8 C 83 % 1009,2 hPa 0,0 l/m 0 min 0 min 0 W/m 39,7 km/h (6 Bft)
13.01.2015 03:34 9,5 C 7,8 C 83 % 1009,2 hPa 0,0 l/m 0 min 0 min 0 W/m 41,8 km/h (6 Bft)
13.01.2015 03:36 9,5 C 7,8 C 83 % 1009,1 hPa 0,0 l/m 0 min 0 min 0 W/m 39,7 km/h (6 Bft)
13.01.2015 03:38 9,5 C 7,8 C 83 % 1009,0 hPa 0,0 l/m 0 min 0 min 0 W/m 48,1 km/h (6 Bft)
13.01.2015 03:40 9,5 C 7,8 C 83 % 1009,2 hPa 0,0 l/m 0 min 0 min 0 W/m 35,6 km/h (5 Bft)
13.01.2015 03:42 9,6 C 7,8 C 83 % 1009,2 hPa 0,0 l/m 0 min 0 min 0 W/m 43,9 km/h (6 Bft)
13.01.2015 03:44 9,6 C 7,8 C 83 % 1009,0 hPa 0,0 l/m 0 min 0 min 0 W/m 48,1 km/h (6 Bft)
13.01.2015 03:46 9,6 C 7,8 C 83 % 1009,1 hPa 0,0 l/m 0 min 0 min 0 W/m 43,9 km/h (6 Bft)
13.01.2015 03:48 9,6 C 7,8 C 83 % 1009,0 hPa 0,0 l/m 0 min 0 min 0 W/m 41,8 km/h (6 Bft)
13.01.2015 03:50 9,6 C 7,8 C 83 % 1009,0 hPa 0,0 l/m 0 min 0 min 0 W/m 35,6 km/h (5 Bft)
13.01.2015 03:52 9,6 C 7,8 C 83 % 1009,0 hPa 0,0 l/m 0 min 0 min 0 W/m 33,5 km/h (5 Bft)
13.01.2015 03:54 9,6 C 7,8 C 83 % 1009,1 hPa 0,0 l/m 0 min 0 min 0 W/m 35,6 km/h (5 Bft)
13.01.2015 03:56 9,6 C 7,8 C 83 % 1008,9 hPa 0,0 l/m 0 min 0 min 0 W/m 41,8 km/h (6 Bft)
13.01.2015 03:58 9,6 C 8,3 C 83 % 1009,1 hPa 0,0 l/m 0 min 0 min 0 W/m 48,1 km/h (6 Bft)
13.01.2015 04:00 9,6 C 8,3 C 83 % 1009,0 hPa 0,0 l/m 0 min 0 min 0 W/m 35,6 km/h (5 Bft)
13.01.2015 04:02 9,7 C 8,3 C 82 % 1008,9 hPa 0,0 l/m 0 min 0 min 0 W/m 33,5 km/h (5 Bft)
13.01.2015 04:04 9,7 C 8,3 C 82 % 1009,0 hPa 0,0 l/m 0 min 0 min 0 W/m 46,0 km/h (6 Bft)
13.01.2015 04:06 9,7 C 8,3 C 82 % 1008,9 hPa 0,0 l/m 0 min 0 min 0 W/m 31,4 km/h (5 Bft)
13.01.2015 04:08 9,7 C 8,3 C 82 % 1008,8 hPa 0,0 l/m 0 min 0 min 0 W/m 39,7 km/h (6 Bft)
13.01.2015 04:10 9,7 C 8,3 C 82 % 1008,8 hPa 0,0 l/m 0 min 0 min 0 W/m 29,3 km/h (5 Bft)
13.01.2015 04:12 9,7 C 8,3 C 82 % 1008,8 hPa 0,0 l/m 0 min 0 min 0 W/m 27,2 km/h (4 Bft)
13.01.2015 04:14 9,7 C 8,3 C 82 % 1008,8 hPa 0,0 l/m 0 min 0 min 0 W/m 39,7 km/h (6 Bft)
13.01.2015 04:16 9,8 C 8,3 C 82 % 1008,8 hPa 0,0 l/m 0 min 0 min 0 W/m 46,0 km/h (6 Bft)
13.01.2015 04:18 9,8 C 8,3 C 82 % 1008,7 hPa 0,0 l/m 0 min 0 min 0 W/m 31,4 km/h (5 Bft)
13.01.2015 04:20 9,9 C 8,3 C 82 % 1008,6 hPa 0,0 l/m 0 min 0 min 0 W/m 31,4 km/h (5 Bft)
13.01.2015 04:22 9,9 C 8,3 C 82 % 1008,7 hPa 0,0 l/m 0 min 0 min 0 W/m 35,6 km/h (5 Bft)
13.01.2015 04:24 9,9 C 8,9 C 81 % 1008,7 hPa 0,0 l/m 0 min 0 min 0 W/m 43,9 km/h (6 Bft)
13.01.2015 04:26 9,9 C 8,9 C 81 % 1008,7 hPa 0,0 l/m 0 min 0 min 0 W/m 35,6 km/h (5 Bft)
13.01.2015 04:28 10,0 C 8,9 C 81 % 1008,6 hPa 0,0 l/m 0 min 0 min 0 W/m 39,7 km/h (6 Bft)
13.01.2015 04:30 10,0 C 8,9 C 81 % 1008,7 hPa 0,0 l/m 0 min 0 min 0 W/m 31,4 km/h (5 Bft)
13.01.2015 04:32 10,1 C 8,9 C 81 % 1008,5 hPa 0,0 l/m 0 min 0 min 0 W/m 39,7 km/h (6 Bft)
13.01.2015 04:34 10,1 C 8,9 C 81 % 1008,8 hPa 0,0 l/m 0 min 0 min 0 W/m 58,6 km/h (7 Bft)
13.01.2015 04:36 10,1 C 8,9 C 81 % 1008,6 hPa 0,0 l/m 0 min 0 min 0 W/m 31,4 km/h (5 Bft)
13.01.2015 04:38 10,1 C 8,9 C 80 % 1008,7 hPa 0,0 l/m 0 min 0 min 0 W/m 33,5 km/h (5 Bft)
13.01.2015 04:40 10,2 C 8,9 C 80 % 1008,6 hPa 0,0 l/m 0 min 0 min 0 W/m 41,8 km/h (6 Bft)
13.01.2015 04:42 10,2 C 8,9 C 80 % 1008,7 hPa 0,0 l/m 0 min 0 min 0 W/m 33,5 km/h (5 Bft)
13.01.2015 04:44 10,2 C 8,9 C 80 % 1008,6 hPa 0,0 l/m 0 min 0 min 0 W/m 27,2 km/h (4 Bft)
13.01.2015 04:46 10,2 C 8,9 C 80 % 1008,5 hPa 0,0 l/m 0 min 0 min 0 W/m 27,2 km/h (4 Bft)
13.01.2015 04:48 10,2 C 8,9 C 80 % 1008,7 hPa 0,0 l/m 0 min 0 min 0 W/m 58,6 km/h (7 Bft)
13.01.2015 04:50 10,3 C 8,9 C 80 % 1008,5 hPa 0,0 l/m 0 min 0 min 0 W/m 35,6 km/h (5 Bft)
13.01.2015 04:52 10,3 C 8,9 C 80 % 1008,5 hPa 0,0 l/m 0 min 0 min 0 W/m 31,4 km/h (5 Bft)
13.01.2015 04:54 10,3 C 8,9 C 80 % 1008,7 hPa 0,0 l/m 0 min 0 min 0 W/m 48,1 km/h (6 Bft)
13.01.2015 04:56 10,3 C 8,9 C 80 % 1008,5 hPa 0,0 l/m 0 min 0 min 0 W/m 39,7 km/h (6 Bft)
13.01.2015 04:58 10,3 C 8,9 C 79 % 1008,5 hPa 0,0 l/m 0 min 0 min 0 W/m 39,7 km/h (6 Bft)
13.01.2015 05:00 10,4 C 8,9 C 79 % 1008,5 hPa 0,0 l/m 0 min 0 min 0 W/m 39,7 km/h (6 Bft)
13.01.2015 05:02 10,4 C 8,9 C 79 % 1008,4 hPa 0,0 l/m 0 min 0 min 0 W/m 29,3 km/h (5 Bft)
13.01.2015 05:04 10,4 C 8,9 C 79 % 1008,3 hPa 0,0 l/m 0 min 0 min 0 W/m 37,7 km/h (5 Bft)
13.01.2015 05:06 10,4 C 8,9 C 79 % 1008,5 hPa 0,0 l/m 0 min 0 min 0 W/m 46,0 km/h (6 Bft)
13.01.2015 05:08 10,4 C 8,9 C 79 % 1008,4 hPa 0,0 l/m 0 min 0 min 0 W/m 41,8 km/h (6 Bft)
13.01.2015 05:10 10,4 C 8,9 C 79 % 1008,4 hPa 0,0 l/m 0 min 0 min 0 W/m 31,4 km/h (5 Bft)
13.01.2015 05:12 10,4 C 8,9 C 79 % 1008,4 hPa 0,0 l/m 0 min 0 min 0 W/m 23,0 km/h (4 Bft)
13.01.2015 05:14 10,4 C 8,9 C 79 % 1008,3 hPa 0,0 l/m 0 min 0 min 0 W/m 35,6 km/h (5 Bft)
13.01.2015 05:16 10,4 C 8,9 C 79 % 1008,2 hPa 0,0 l/m 0 min 0 min 0 W/m 35,6 km/h (5 Bft)
13.01.2015 05:18 10,4 C 8,9 C 79 % 1008,3 hPa 0,0 l/m 0 min 0 min 0 W/m 41,8 km/h (6 Bft)
13.01.2015 05:20 10,4 C 8,9 C 79 % 1008,3 hPa 0,0 l/m 0 min 0 min 0 W/m 29,3 km/h (5 Bft)
13.01.2015 05:22 10,4 C 8,9 C 79 % 1008,2 hPa 0,0 l/m 0 min 0 min 0 W/m 39,7 km/h (6 Bft)
13.01.2015 05:24 10,4 C 8,9 C 79 % 1008,2 hPa 0,0 l/m 0 min 0 min 0 W/m 33,5 km/h (5 Bft)
13.01.2015 05:26 10,4 C 8,9 C 79 % 1008,2 hPa 0,0 l/m 0 min 0 min 0 W/m 27,2 km/h (4 Bft)
13.01.2015 05:28 10,4 C 8,9 C 79 % 1008,2 hPa 0,0 l/m 0 min 0 min 0 W/m 33,5 km/h (5 Bft)
13.01.2015 05:30 10,4 C 8,9 C 79 % 1008,1 hPa 0,0 l/m 0 min 0 min 0 W/m 33,5 km/h (5 Bft)
13.01.2015 05:32 10,4 C 8,9 C 79 % 1008,1 hPa 0,0 l/m 0 min 0 min 0 W/m 35,6 km/h (5 Bft)
13.01.2015 05:34 10,4 C 8,9 C 79 % 1008,2 hPa 0,0 l/m 0 min 0 min 0 W/m 29,3 km/h (5 Bft)
13.01.2015 05:36 10,4 C 8,9 C 79 % 1008,1 hPa 0,0 l/m 0 min 0 min 0 W/m 37,7 km/h (5 Bft)
13.01.2015 05:38 10,4 C 8,9 C 79 % 1008,0 hPa 0,0 l/m 0 min 0 min 0 W/m 33,5 km/h (5 Bft)
13.01.2015 05:40 10,4 C 8,9 C 79 % 1008,0 hPa 0,0 l/m 0 min 0 min 0 W/m 35,6 km/h (5 Bft)
13.01.2015 05:42 10,4 C 8,9 C 79 % 1008,1 hPa 0,0 l/m 0 min 0 min 0 W/m 43,9 km/h (6 Bft)
13.01.2015 05:44 10,4 C 8,9 C 79 % 1008,1 hPa 0,0 l/m 0 min 0 min 0 W/m 37,7 km/h (5 Bft)
13.01.2015 05:46 10,4 C 8,9 C 79 % 1007,9 hPa 0,0 l/m 0 min 0 min 0 W/m 43,9 km/h (6 Bft)
13.01.2015 05:48 10,4 C 8,9 C 78 % 1008,0 hPa 0,0 l/m 0 min 0 min 0 W/m 41,8 km/h (6 Bft)
13.01.2015 05:50 10,5 C 8,9 C 78 % 1008,0 hPa 0,0 l/m 0 min 0 min 0 W/m 31,4 km/h (5 Bft)
13.01.2015 05:52 10,4 C 8,9 C 78 % 1008,0 hPa 0,0 l/m 0 min 0 min 0 W/m 37,7 km/h (5 Bft)
13.01.2015 05:54 10,4 C 8,9 C 78 % 1008,0 hPa 0,0 l/m 0 min 0 min 0 W/m 33,5 km/h (5 Bft)
13.01.2015 05:56 10,4 C 8,9 C 78 % 1008,0 hPa 0,0 l/m 0 min 0 min 0 W/m 46,0 km/h (6 Bft)
13.01.2015 05:58 10,4 C 8,9 C 78 % 1007,9 hPa 0,0 l/m 0 min 0 min 0 W/m 46,0 km/h (6 Bft)
13.01.2015 06:00 10,4 C 8,9 C 78 % 1007,9 hPa 0,0 l/m 0 min 0 min 0 W/m 33,5 km/h (5 Bft)
13.01.2015 06:02 10,4 C 8,9 C 78 % 1007,8 hPa 0,0 l/m 0 min 0 min 0 W/m 46,0 km/h (6 Bft)
13.01.2015 06:08 10,4 C 8,9 C 78 % 1007,8 hPa 0,0 l/m 0 min 0 min 0 W/m 35,6 km/h (5 Bft)
13.01.2015 06:15 10,4 C 8,9 C 79 % 1007,7 hPa 0,0 l/m 0 min 0 min 0 W/m 35,6 km/h (5 Bft)
13.01.2015 06:20 10,3 C 8,9 C 79 % 1007,7 hPa 0,0 l/m 0 min 0 min 0 W/m 35,6 km/h (5 Bft)
13.01.2015 06:22 10,3 C 8,9 C 79 % 1007,6 hPa 0,0 l/m 0 min 0 min 0 W/m 31,4 km/h (5 Bft)
13.01.2015 06:24 10,3 C 8,9 C 79 % 1007,7 hPa 0,0 l/m 0 min 0 min 0 W/m 33,5 km/h (5 Bft)
13.01.2015 06:26 10,3 C 8,9 C 79 % 1007,6 hPa 0,0 l/m 0 min 0 min 0 W/m 23,0 km/h (4 Bft)
13.01.2015 06:28 10,3 C 8,3 C 79 % 1007,7 hPa 0,0 l/m 0 min 0 min 0 W/m 33,5 km/h (5 Bft)
13.01.2015 06:30 10,3 C 8,9 C 79 % 1007,7 hPa 0,0 l/m 0 min 0 min 0 W/m 41,8 km/h (6 Bft)
13.01.2015 06:32 10,2 C 8,9 C 79 % 1007,7 hPa 0,0 l/m 0 min 0 min 0 W/m 39,7 km/h (6 Bft)
13.01.2015 06:34 10,2 C 8,9 C 79 % 1007,7 hPa 0,0 l/m 0 min 0 min 0 W/m 33,5 km/h (5 Bft)
13.01.2015 06:36 10,2 C 8,9 C 79 % 1007,7 hPa 0,0 l/m 0 min 0 min 0 W/m 33,5 km/h (5 Bft)
13.01.2015 06:38 10,2 C 8,9 C 79 % 1007,7 hPa 0,0 l/m 0 min 0 min 0 W/m 25,1 km/h (4 Bft)
13.01.2015 06:40 10,2 C 8,9 C 79 % 1007,6 hPa 0,0 l/m 0 min 0 min 0 W/m 31,4 km/h (5 Bft)
13.01.2015 06:42 10,2 C 8,9 C 79 % 1007,6 hPa 0,0 l/m 0 min 0 min 0 W/m 29,3 km/h (5 Bft)
13.01.2015 06:44 10,2 C 8,9 C 79 % 1007,6 hPa 0,0 l/m 0 min 0 min 0 W/m 23,0 km/h (4 Bft)
13.01.2015 06:46 10,2 C 8,3 C 79 % 1007,6 hPa 0,0 l/m 0 min 0 min 0 W/m 18,8 km/h (3 Bft)
13.01.2015 06:48 10,2 C 8,3 C 79 % 1007,6 hPa 0,0 l/m 0 min 0 min 0 W/m 18,8 km/h (3 Bft)
13.01.2015 06:50 10,1 C 8,3 C 79 % 1007,5 hPa 0,0 l/m 0 min 0 min 0 W/m 35,6 km/h (5 Bft)
13.01.2015 06:52 10,1 C 8,3 C 79 % 1007,6 hPa 0,0 l/m 0 min 0 min 0 W/m 31,4 km/h (5 Bft)
13.01.2015 06:54 10,1 C 8,3 C 79 % 1007,5 hPa 0,0 l/m 0 min 0 min 0 W/m 25,1 km/h (4 Bft)
13.01.2015 06:56 10,1 C 8,3 C 79 % 1007,6 hPa 0,0 l/m 0 min 0 min 0 W/m 33,5 km/h (5 Bft)
13.01.2015 06:58 10,0 C 8,3 C 79 % 1007,5 hPa 0,0 l/m 0 min 0 min 0 W/m 27,2 km/h (4 Bft)
13.01.2015 07:00 10,0 C 8,3 C 79 % 1007,5 hPa 0,0 l/m 0 min 0 min 0 W/m 29,3 km/h (5 Bft)
13.01.2015 07:02 9,9 C 8,3 C 79 % 1007,4 hPa 0,0 l/m 0 min 0 min 0 W/m 20,9 km/h (4 Bft)
13.01.2015 07:04 9,9 C 8,3 C 79 % 1007,5 hPa 0,0 l/m 0 min 0 min 0 W/m 39,7 km/h (6 Bft)
13.01.2015 07:06 9,9 C 8,3 C 79 % 1007,3 hPa 0,0 l/m 0 min 0 min 0 W/m 41,8 km/h (6 Bft)
13.01.2015 07:08 9,9 C 8,3 C 79 % 1007,4 hPa 0,0 l/m 0 min 0 min 0 W/m 39,7 km/h (6 Bft)
13.01.2015 07:10 9,9 C 8,3 C 79 % 1007,2 hPa 0,0 l/m 0 min 0 min 0 W/m 41,8 km/h (6 Bft)
13.01.2015 07:12 9,9 C 8,3 C 79 % 1007,1 hPa 0,0 l/m 0 min 0 min 0 W/m 41,8 km/h (6 Bft)
13.01.2015 07:14 9,9 C 8,3 C 79 % 1007,2 hPa 0,0 l/m 0 min 0 min 0 W/m 33,5 km/h (5 Bft)
13.01.2015 07:16 9,8 C 8,3 C 79 % 1007,3 hPa 0,0 l/m 0 min 0 min 0 W/m 43,9 km/h (6 Bft)
13.01.2015 07:18 9,8 C 8,3 C 79 % 1007,3 hPa 0,0 l/m 0 min 0 min 0 W/m 41,8 km/h (6 Bft)
13.01.2015 07:20 9,8 C 8,3 C 79 % 1007,3 hPa 0,0 l/m 0 min 0 min 0 W/m 27,2 km/h (4 Bft)
13.01.2015 07:22 9,8 C 8,3 C 79 % 1007,2 hPa 0,0 l/m 0 min 0 min 0 W/m 29,3 km/h (5 Bft)
13.01.2015 07:24 9,8 C 8,3 C 79 % 1007,2 hPa 0,0 l/m 0 min 0 min 0 W/m 35,6 km/h (5 Bft)
13.01.2015 07:26 9,8 C 8,3 C 79 % 1007,1 hPa 0,0 l/m 0 min 0 min 0 W/m 33,5 km/h (5 Bft)
13.01.2015 07:28 9,8 C 8,3 C 79 % 1007,2 hPa 0,0 l/m 0 min 0 min 0 W/m 41,8 km/h (6 Bft)
13.01.2015 07:30 9,8 C 8,3 C 79 % 1007,1 hPa 0,0 l/m 0 min 0 min 0 W/m 27,2 km/h (4 Bft)
13.01.2015 07:32 9,8 C 8,3 C 79 % 1007,2 hPa 0,0 l/m 0 min 0 min 0 W/m 25,1 km/h (4 Bft)
13.01.2015 07:34 9,8 C 8,3 C 79 % 1007,0 hPa 0,0 l/m 0 min 0 min 0 W/m 27,2 km/h (4 Bft)
13.01.2015 07:36 9,8 C 8,3 C 79 % 1007,2 hPa 0,0 l/m 0 min 0 min 0 W/m 35,6 km/h (5 Bft)
13.01.2015 07:38 9,8 C 8,3 C 79 % 1007,1 hPa 0,0 l/m 0 min 0 min 0 W/m 29,3 km/h (5 Bft)
13.01.2015 07:40 9,8 C 8,3 C 79 % 1007,1 hPa 0,0 l/m 0 min 0 min 0 W/m 29,3 km/h (5 Bft)
13.01.2015 07:42 9,8 C 8,3 C 79 % 1007,1 hPa 0,0 l/m 0 min 0 min 0 W/m 35,6 km/h (5 Bft)
13.01.2015 07:44 9,9 C 8,3 C 79 % 1007,1 hPa 0,0 l/m 0 min 0 min 0 W/m 31,4 km/h (5 Bft)
13.01.2015 07:46 9,9 C 8,3 C 79 % 1007,0 hPa 0,0 l/m 0 min 0 min 0 W/m 35,6 km/h (5 Bft)
13.01.2015 07:48 9,9 C 8,3 C 79 % 1007,0 hPa 0,0 l/m 0 min 0 min 0 W/m 37,7 km/h (5 Bft)
13.01.2015 07:50 9,9 C 8,3 C 79 % 1006,9 hPa 0,0 l/m 0 min 0 min 0 W/m 23,0 km/h (4 Bft)
13.01.2015 07:52 9,9 C 8,3 C 79 % 1007,0 hPa 0,0 l/m 0 min 0 min 0 W/m 27,2 km/h (4 Bft)
13.01.2015 07:54 9,9 C 8,3 C 79 % 1007,0 hPa 0,0 l/m 0 min 0 min 0 W/m 29,3 km/h (5 Bft)
13.01.2015 07:56 9,9 C 8,3 C 79 % 1006,9 hPa 0,0 l/m 0 min 0 min 0 W/m 27,2 km/h (4 Bft)
13.01.2015 07:58 9,9 C 8,3 C 79 % 1006,9 hPa 0,0 l/m 0 min 0 min 0 W/m 27,2 km/h (4 Bft)
13.01.2015 08:00 10,0 C 8,3 C 79 % 1006,8 hPa 0,0 l/m 0 min 0 min 0 W/m 31,4 km/h (5 Bft)
13.01.2015 08:02 10,0 C 8,3 C 79 % 1006,9 hPa 0,0 l/m 0 min 0 min 0 W/m 31,4 km/h (5 Bft)
13.01.2015 08:04 10,0 C 8,3 C 79 % 1006,9 hPa 0,0 l/m 0 min 0 min 0 W/m 20,9 km/h (4 Bft)
13.01.2015 08:06 10,0 C 8,3 C 79 % 1006,9 hPa 0,0 l/m 0 min 0 min 0 W/m 35,6 km/h (5 Bft)
13.01.2015 08:08 10,0 C 8,3 C 80 % 1007,0 hPa 0,0 l/m 0 min 0 min 0 W/m 39,7 km/h (6 Bft)
13.01.2015 08:10 10,0 C 8,9 C 80 % 1006,9 hPa 0,0 l/m 0 min 0 min 0 W/m 37,7 km/h (5 Bft)
13.01.2015 08:12 10,0 C 8,3 C 80 % 1006,9 hPa 0,0 l/m 0 min 0 min 0 W/m 33,5 km/h (5 Bft)
13.01.2015 08:14 10,0 C 8,3 C 80 % 1007,0 hPa 0,0 l/m 0 min 0 min 0 W/m 25,1 km/h (4 Bft)
13.01.2015 08:16 10,0 C 8,3 C 80 % 1006,8 hPa 0,0 l/m 0 min 0 min 0 W/m 33,5 km/h (5 Bft)
13.01.2015 08:18 10,0 C 8,3 C 80 % 1006,9 hPa 0,0 l/m 0 min 0 min 0 W/m 18,8 km/h (3 Bft)
13.01.2015 08:20 10,0 C 8,3 C 80 % 1007,0 hPa 0,0 l/m 0 min 0 min 0 W/m 31,4 km/h (5 Bft)
13.01.2015 08:22 10,0 C 8,3 C 80 % 1006,8 hPa 0,0 l/m 0 min 0 min 0 W/m 37,7 km/h (5 Bft)
13.01.2015 08:24 10,0 C 8,3 C 80 % 1006,8 hPa 0,0 l/m 0 min 0 min 0 W/m 43,9 km/h (6 Bft)
13.01.2015 08:26 10,0 C 8,3 C 80 % 1006,9 hPa 0,0 l/m 0 min 0 min 0 W/m 35,6 km/h (5 Bft)
13.01.2015 08:28 10,0 C 8,3 C 80 % 1006,6 hPa 0,0 l/m 0 min 0 min 1 W/m 35,6 km/h (5 Bft)
13.01.2015 08:30 10,0 C 8,3 C 80 % 1006,6 hPa 0,0 l/m 0 min 0 min 5 W/m 31,4 km/h (5 Bft)
13.01.2015 08:32 10,0 C 8,3 C 80 % 1006,6 hPa 0,0 l/m 0 min 0 min 5 W/m 39,7 km/h (6 Bft)
13.01.2015 08:34 9,9 C 8,3 C 81 % 1006,9 hPa 0,0 l/m 0 min 0 min 5 W/m 31,4 km/h (5 Bft)
13.01.2015 08:36 9,9 C 8,3 C 81 % 1006,6 hPa 0,0 l/m 0 min 0 min 6 W/m 29,3 km/h (5 Bft)
13.01.2015 08:38 9,9 C 8,3 C 81 % 1006,5 hPa 0,0 l/m 0 min 0 min 7 W/m 50,2 km/h (7 Bft)
13.01.2015 08:40 9,9 C 8,3 C 81 % 1006,6 hPa 0,0 l/m 0 min 0 min 9 W/m 35,6 km/h (5 Bft)
13.01.2015 08:42 9,9 C 8,3 C 81 % 1006,5 hPa 0,0 l/m 0 min 0 min 9 W/m 43,9 km/h (6 Bft)
13.01.2015 08:44 9,9 C 8,3 C 81 % 1006,6 hPa 0,0 l/m 0 min 0 min 9 W/m 39,7 km/h (6 Bft)
13.01.2015 08:45 9,9 C 8,3 C 81 % 1006,5 hPa 0,0 l/m 0 min 0 min 9 W/m 43,9 km/h (6 Bft)
13.01.2015 08:50 9,9 C 8,3 C 81 % 1006,4 hPa 0,0 l/m 0 min 0 min 9 W/m 46,0 km/h (6 Bft)
13.01.2015 08:55 10,0 C 8,3 C 81 % 1006,5 hPa 0,0 l/m 0 min 0 min 11 W/m 43,9 km/h (6 Bft)
13.01.2015 09:00 10,0 C 8,9 C 81 % 1006,3 hPa 0,0 l/m 0 min 0 min 14 W/m 46,0 km/h (6 Bft)
13.01.2015 09:05 10,1 C 8,9 C 81 % 1006,3 hPa 0,0 l/m 0 min 0 min 18 W/m 41,8 km/h (6 Bft)
13.01.2015 09:10 10,1 C 8,9 C 81 % 1006,2 hPa 0,0 l/m 0 min 0 min 29 W/m 50,2 km/h (7 Bft)
13.01.2015 09:15 10,1 C 8,9 C 81 % 1006,2 hPa 0,0 l/m 2 min 0 min 40 W/m 52,3 km/h (7 Bft)
13.01.2015 09:20 10,2 C 8,9 C 81 % 1006,2 hPa 0,0 l/m 0 min 0 min 41 W/m 46,0 km/h (6 Bft)
13.01.2015 09:25 10,2 C 8,9 C 81 % 1006,0 hPa 0,0 l/m 0 min 0 min 19 W/m 41,8 km/h (6 Bft)
13.01.2015 09:30 10,2 C 8,9 C 81 % 1006,0 hPa 0,0 l/m 0 min 0 min 20 W/m 41,8 km/h (6 Bft)
13.01.2015 09:35 10,2 C 8,9 C 80 % 1006,1 hPa 0,0 l/m 0 min 0 min 25 W/m 48,1 km/h (6 Bft)
13.01.2015 09:40 10,2 C 8,9 C 80 % 1005,9 hPa 0,0 l/m 0 min 0 min 38 W/m 37,7 km/h (5 Bft)
13.01.2015 09:45 10,3 C 8,9 C 80 % 1005,9 hPa 0,0 l/m 0 min 0 min 39 W/m 35,6 km/h (5 Bft)
13.01.2015 09:50 10,3 C 8,9 C 80 % 1005,9 hPa 0,0 l/m 0 min 0 min 28 W/m 46,0 km/h (6 Bft)
13.01.2015 09:55 10,3 C 8,9 C 79 % 1005,9 hPa 0,0 l/m 0 min 0 min 38 W/m 35,6 km/h (5 Bft)
13.01.2015 10:20 10,6 C 9,4 C 77 % 1005,7 hPa 0,0 l/m 0 min 0 min 88 W/m 16,7 km/h (3 Bft)
13.01.2015 10:22 10,6 C 9,4 C 76 % 1005,7 hPa 0,0 l/m 0 min 0 min 86 W/m 56,5 km/h (7 Bft)
13.01.2015 10:24 10,6 C 9,4 C 76 % 1005,5 hPa 0,0 l/m 0 min 0 min 92 W/m 29,3 km/h (5 Bft)
13.01.2015 10:26 10,7 C 9,4 C 76 % 1005,6 hPa 0,0 l/m 2 min 0 min 164 W/m 31,4 km/h (5 Bft)
13.01.2015 10:28 10,7 C 9,4 C 76 % 1005,7 hPa 0,0 l/m 2 min 0 min 136 W/m 39,7 km/h (6 Bft)
13.01.2015 10:30 10,7 C 9,4 C 76 % 1005,6 hPa 0,0 l/m 2 min 0 min 167 W/m 23,0 km/h (4 Bft)
13.01.2015 10:32 10,7 C 9,4 C 76 % 1005,6 hPa 0,0 l/m 2 min 0 min 153 W/m 43,9 km/h (6 Bft)
13.01.2015 10:34 10,8 C 9,4 C 75 % 1005,6 hPa 0,0 l/m 2 min 0 min 142 W/m 29,3 km/h (5 Bft)
13.01.2015 10:36 10,8 C 9,4 C 75 % 1005,5 hPa 0,0 l/m 0 min 0 min 98 W/m 31,4 km/h (5 Bft)
13.01.2015 10:38 10,8 C 9,4 C 75 % 1005,5 hPa 0,0 l/m 0 min 0 min 102 W/m 37,7 km/h (5 Bft)
13.01.2015 10:40 10,9 C 9,4 C 75 % 1005,5 hPa 0,0 l/m 0 min 0 min 104 W/m 31,4 km/h (5 Bft)
13.01.2015 10:42 10,9 C 10,0 C 75 % 1005,6 hPa 0,0 l/m 2 min 0 min 129 W/m 27,2 km/h (4 Bft)
13.01.2015 10:44 10,9 C 10,0 C 74 % 1005,6 hPa 0,0 l/m 2 min 0 min 129 W/m 43,9 km/h (6 Bft)
13.01.2015 10:46 11,0 C 10,0 C 74 % 1005,6 hPa 0,0 l/m 0 min 0 min 73 W/m 39,7 km/h (6 Bft)
13.01.2015 10:48 11,0 C 9,4 C 74 % 1005,6 hPa 0,0 l/m 0 min 0 min 56 W/m 23,0 km/h (4 Bft)
13.01.2015 10:50 11,0 C 9,4 C 74 % 1005,2 hPa 0,0 l/m 0 min 0 min 56 W/m 35,6 km/h (5 Bft)
13.01.2015 10:52 11,0 C 9,4 C 74 % 1005,4 hPa 0,0 l/m 0 min 0 min 61 W/m 43,9 km/h (6 Bft)
13.01.2015 10:54 11,0 C 9,4 C 74 % 1005,4 hPa 0,0 l/m 0 min 0 min 83 W/m 33,5 km/h (5 Bft)
13.01.2015 10:56 11,0 C 9,4 C 73 % 1005,3 hPa 0,0 l/m 0 min 0 min 80 W/m 39,7 km/h (6 Bft)
13.01.2015 10:58 11,1 C 10,0 C 73 % 1005,2 hPa 0,0 l/m 0 min 0 min 80 W/m 27,2 km/h (4 Bft)
13.01.2015 11:00 11,1 C 10,0 C 73 % 1005,1 hPa 0,0 l/m 0 min 0 min 97 W/m 29,3 km/h (5 Bft)
13.01.2015 11:02 11,1 C 10,0 C 73 % 1005,1 hPa 0,0 l/m 0 min 0 min 112 W/m 39,7 km/h (6 Bft)
13.01.2015 11:04 11,1 C 10,0 C 73 % 1005,1 hPa 0,0 l/m 0 min 0 min 121 W/m 41,8 km/h (6 Bft)
13.01.2015 11:06 11,1 C 10,0 C 73 % 1005,0 hPa 0,0 l/m 2 min 0 min 130 W/m 33,5 km/h (5 Bft)
13.01.2015 11:08 11,2 C 10,0 C 73 % 1005,0 hPa 0,0 l/m 2 min 0 min 130 W/m 41,8 km/h (6 Bft)
13.01.2015 11:10 11,2 C 10,0 C 73 % 1005,0 hPa 0,0 l/m 2 min 0 min 128 W/m 35,6 km/h (5 Bft)
13.01.2015 11:12 11,3 C 10,0 C 73 % 1004,8 hPa 0,0 l/m 2 min 0 min 133 W/m 41,8 km/h (6 Bft)
13.01.2015 11:14 11,3 C 10,0 C 72 % 1005,0 hPa 0,0 l/m 2 min 0 min 130 W/m 35,6 km/h (5 Bft)
13.01.2015 11:16 11,4 C 10,0 C 72 % 1004,8 hPa 0,0 l/m 0 min 0 min 107 W/m 29,3 km/h (5 Bft)
13.01.2015 11:18 11,4 C 10,0 C 72 % 1004,9 hPa 0,0 l/m 0 min 0 min 100 W/m 31,4 km/h (5 Bft)
13.01.2015 11:20 11,4 C 10,0 C 72 % 1004,9 hPa 0,0 l/m 0 min 0 min 73 W/m 39,7 km/h (6 Bft)
13.01.2015 11:22 11,5 C 10,0 C 72 % 1004,9 hPa 0,0 l/m 0 min 0 min 58 W/m 41,8 km/h (6 Bft)
13.01.2015 11:24 11,5 C 10,0 C 72 % 1004,8 hPa 0,0 l/m 0 min 0 min 64 W/m 27,2 km/h (4 Bft)
13.01.2015 11:26 11,5 C 10,0 C 72 % 1004,7 hPa 0,0 l/m 0 min 0 min 73 W/m 35,6 km/h (5 Bft)
13.01.2015 11:28 11,6 C 10,0 C 72 % 1004,8 hPa 0,0 l/m 0 min 0 min 83 W/m 31,4 km/h (5 Bft)
13.01.2015 11:30 11,6 C 10,0 C 72 % 1004,7 hPa 0,0 l/m 0 min 0 min 95 W/m 29,3 km/h (5 Bft)
13.01.2015 11:32 11,6 C 10,6 C 72 % 1004,7 hPa 0,0 l/m 0 min 0 min 126 W/m 43,9 km/h (6 Bft)
13.01.2015 11:34 11,6 C 10,6 C 72 % 1004,7 hPa 0,0 l/m 2 min 0 min 141 W/m 35,6 km/h (5 Bft)
13.01.2015 11:36 11,6 C 10,6 C 72 % 1004,6 hPa 0,0 l/m 0 min 0 min 135 W/m 43,9 km/h (6 Bft)
13.01.2015 11:38 11,6 C 10,6 C 71 % 1004,6 hPa 0,0 l/m 2 min 0 min 146 W/m 35,6 km/h (5 Bft)
13.01.2015 11:40 11,7 C 10,6 C 72 % 1004,6 hPa 0,0 l/m 0 min 0 min 126 W/m 43,9 km/h (6 Bft)
13.01.2015 11:42 11,7 C 10,6 C 71 % 1004,5 hPa 0,0 l/m 0 min 0 min 104 W/m 37,7 km/h (5 Bft)
13.01.2015 11:44 11,7 C 10,6 C 72 % 1004,5 hPa 0,0 l/m 0 min 0 min 94 W/m 39,7 km/h (6 Bft)
13.01.2015 11:46 11,7 C 10,0 C 71 % 1004,5 hPa 0,0 l/m 0 min 0 min 77 W/m 37,7 km/h (5 Bft)
13.01.2015 11:48 11,7 C 10,0 C 71 % 1004,5 hPa 0,0 l/m 0 min 0 min 70 W/m 25,1 km/h (4 Bft)
13.01.2015 11:50 11,7 C 10,0 C 72 % 1004,5 hPa 0,0 l/m 0 min 0 min 73 W/m 31,4 km/h (5 Bft)
13.01.2015 11:52 11,7 C 10,0 C 72 % 1004,4 hPa 0,0 l/m 0 min 0 min 66 W/m 25,1 km/h (4 Bft)
13.01.2015 11:54 11,7 C 10,0 C 72 % 1004,5 hPa 0,0 l/m 0 min 0 min 66 W/m 41,8 km/h (6 Bft)
13.01.2015 11:56 11,7 C 9,4 C 72 % 1004,3 hPa 0,0 l/m 0 min 0 min 64 W/m 52,3 km/h (7 Bft)
13.01.2015 11:58 11,6 C 9,4 C 72 % 1004,5 hPa 0,0 l/m 0 min 2 min 62 W/m 46,0 km/h (6 Bft)
13.01.2015 12:00 11,6 C 10,0 C 72 % 1004,4 hPa 0,0 l/m 0 min 0 min 52 W/m 46,0 km/h (6 Bft)
13.01.2015 12:02 11,6 C 9,4 C 73 % 1004,4 hPa 0,0 l/m 0 min 2 min 51 W/m 46,0 km/h (6 Bft)
13.01.2015 12:06 11,4 C 8,3 C 75 % 1004,3 hPa 0,0 l/m 0 min 2 min 58 W/m 56,5 km/h (7 Bft)
13.01.2015 12:08 11,3 C 7,8 C 77 % 1004,3 hPa 0,2 l/m 0 min 2 min 67 W/m 48,1 km/h (6 Bft)
13.01.2015 12:10 11,1 C 7,8 C 77 % 1004,3 hPa 0,0 l/m 0 min 2 min 70 W/m 52,3 km/h (7 Bft)
13.01.2015 12:12 10,9 C 7,8 C 78 % 1004,2 hPa 0,0 l/m 0 min 2 min 56 W/m 41,8 km/h (6 Bft)
13.01.2015 12:14 10,9 C 7,8 C 79 % 1004,1 hPa 0,0 l/m 0 min 2 min 53 W/m 31,4 km/h (5 Bft)
13.01.2015 12:16 10,8 C 7,2 C 80 % 1004,1 hPa 0,0 l/m 0 min 2 min 53 W/m 31,4 km/h (5 Bft)
13.01.2015 12:18 10,7 C 7,2 C 80 % 1004,1 hPa 0,0 l/m 0 min 2 min 52 W/m 27,2 km/h (4 Bft)
13.01.2015 12:20 10,6 C 7,2 C 81 % 1004,0 hPa 0,0 l/m 0 min 2 min 50 W/m 29,3 km/h (5 Bft)
13.01.2015 12:22 10,5 C 7,8 C 81 % 1004,0 hPa 0,0 l/m 0 min 2 min 51 W/m 41,8 km/h (6 Bft)
13.01.2015 12:24 10,4 C 7,8 C 81 % 1003,9 hPa 0,0 l/m 0 min 2 min 55 W/m 27,2 km/h (4 Bft)
13.01.2015 12:26 10,4 C 7,8 C 81 % 1003,9 hPa 0,0 l/m 0 min 2 min 52 W/m 39,7 km/h (6 Bft)
13.01.2015 12:28 10,4 C 7,8 C 81 % 1003,9 hPa 0,0 l/m 0 min 0 min 58 W/m 35,6 km/h (5 Bft)
13.01.2015 12:30 10,3 C 7,8 C 81 % 1003,8 hPa 0,0 l/m 0 min 0 min 68 W/m 33,5 km/h (5 Bft)
13.01.2015 12:32 10,3 C 7,8 C 81 % 1003,7 hPa 0,0 l/m 0 min 2 min 75 W/m 37,7 km/h (5 Bft)
13.01.2015 12:34 10,3 C 7,8 C 81 % 1003,8 hPa 0,0 l/m 0 min 2 min 82 W/m 33,5 km/h (5 Bft)
13.01.2015 12:36 10,4 C 8,3 C 81 % 1003,7 hPa 0,0 l/m 0 min 0 min 77 W/m 33,5 km/h (5 Bft)
13.01.2015 12:38 10,4 C 8,3 C 81 % 1003,7 hPa 0,0 l/m 0 min 0 min 61 W/m 43,9 km/h (6 Bft)
13.01.2015 12:40 10,4 C 8,3 C 80 % 1003,7 hPa 0,0 l/m 0 min 0 min 48 W/m 62,8 km/h (8 Bft)
13.01.2015 12:42 10,4 C 8,3 C 80 % 1003,8 hPa 0,0 l/m 0 min 0 min 43 W/m 29,3 km/h (5 Bft)
13.01.2015 12:44 10,4 C 8,3 C 80 % 1003,8 hPa 0,0 l/m 0 min 0 min 57 W/m 50,2 km/h (7 Bft)
13.01.2015 12:46 10,5 C 8,3 C 80 % 1003,7 hPa 0,0 l/m 0 min 2 min 65 W/m 33,5 km/h (5 Bft)
13.01.2015 12:48 10,5 C 8,3 C 80 % 1003,6 hPa 0,0 l/m 0 min 2 min 77 W/m 43,9 km/h (6 Bft)
13.01.2015 12:50 10,5 C 7,8 C 81 % 1003,7 hPa 0,0 l/m 0 min 2 min 69 W/m 29,3 km/h (5 Bft)
13.01.2015 12:52 10,5 C 7,8 C 81 % 1003,6 hPa 0,0 l/m 0 min 2 min 64 W/m 29,3 km/h (5 Bft)
13.01.2015 12:54 10,5 C 7,8 C 81 % 1003,5 hPa 0,0 l/m 0 min 0 min 68 W/m 39,7 km/h (6 Bft)
13.01.2015 12:56 10,4 C 7,8 C 81 % 1003,5 hPa 0,0 l/m 0 min 2 min 65 W/m 37,7 km/h (5 Bft)
13.01.2015 12:58 10,4 C 7,8 C 81 % 1003,5 hPa 0,0 l/m 0 min 2 min 52 W/m 41,8 km/h (6 Bft)
13.01.2015 13:00 10,4 C 7,8 C 81 % 1003,4 hPa 0,0 l/m 0 min 0 min 45 W/m 35,6 km/h (5 Bft)
13.01.2015 13:02 10,4 C 7,8 C 81 % 1003,4 hPa 0,0 l/m 0 min 2 min 55 W/m 46,0 km/h (6 Bft)
13.01.2015 13:04 10,4 C 7,8 C 81 % 1003,5 hPa 0,0 l/m 0 min 2 min 63 W/m 37,7 km/h (5 Bft)
13.01.2015 13:06 10,4 C 7,8 C 81 % 1003,5 hPa 0,0 l/m 0 min 0 min 52 W/m 35,6 km/h (5 Bft)
13.01.2015 13:08 10,4 C 8,3 C 81 % 1003,2 hPa 0,0 l/m 0 min 0 min 60 W/m 37,7 km/h (5 Bft)
13.01.2015 13:10 10,4 C 8,3 C 81 % 1003,1 hPa 0,0 l/m 0 min 0 min 65 W/m 37,7 km/h (5 Bft)
13.01.2015 13:12 10,4 C 8,3 C 81 % 1003,0 hPa 0,0 l/m 0 min 0 min 63 W/m 37,7 km/h (5 Bft)
13.01.2015 13:14 10,4 C 8,9 C 81 % 1003,2 hPa 0,0 l/m 0 min 0 min 43 W/m 35,6 km/h (5 Bft)
13.01.2015 13:16 10,4 C 8,9 C 81 % 1003,2 hPa 0,0 l/m 0 min 0 min 37 W/m 31,4 km/h (5 Bft)
13.01.2015 13:18 10,5 C 8,9 C 81 % 1003,1 hPa 0,0 l/m 0 min 0 min 31 W/m 43,9 km/h (6 Bft)
13.01.2015 13:20 10,5 C 8,9 C 80 % 1003,2 hPa 0,0 l/m 0 min 0 min 31 W/m 35,6 km/h (5 Bft)
13.01.2015 13:22 10,6 C 8,9 C 81 % 1003,2 hPa 0,0 l/m 0 min 2 min 38 W/m 25,1 km/h (4 Bft)
13.01.2015 13:24 10,6 C 8,3 C 81 % 1003,2 hPa 0,0 l/m 0 min 2 min 42 W/m 31,4 km/h (5 Bft)
13.01.2015 13:26 10,6 C 7,8 C 81 % 1003,2 hPa 0,0 l/m 0 min 2 min 44 W/m 35,6 km/h (5 Bft)
13.01.2015 13:28 10,6 C 7,8 C 82 % 1003,2 hPa 0,2 l/m 0 min 2 min 47 W/m 43,9 km/h (6 Bft)
13.01.2015 13:30 10,6 C 7,8 C 82 % 1003,1 hPa 0,0 l/m 0 min 2 min 38 W/m 39,7 km/h (6 Bft)
13.01.2015 13:32 10,5 C 7,2 C 83 % 1003,1 hPa 0,0 l/m 0 min 2 min 30 W/m 46,0 km/h (6 Bft)
13.01.2015 13:34 10,4 C 7,2 C 83 % 1003,2 hPa 0,0 l/m 0 min 2 min 28 W/m 29,3 km/h (5 Bft)
13.01.2015 13:36 10,4 C 7,2 C 84 % 1003,1 hPa 0,0 l/m 0 min 2 min 29 W/m 31,4 km/h (5 Bft)
13.01.2015 13:38 10,3 C 7,2 C 84 % 1003,2 hPa 0,2 l/m 0 min 2 min 24 W/m 41,8 km/h (6 Bft)
13.01.2015 13:40 10,3 C 7,2 C 84 % 1003,1 hPa 0,0 l/m 0 min 2 min 28 W/m 35,6 km/h (5 Bft)
13.01.2015 13:42 10,2 C 7,2 C 85 % 1003,1 hPa 0,0 l/m 0 min 2 min 33 W/m 31,4 km/h (5 Bft)
13.01.2015 13:44 10,2 C 7,2 C 85 % 1003,0 hPa 0,0 l/m 0 min 2 min 35 W/m 33,5 km/h (5 Bft)
13.01.2015 13:46 10,1 C 7,2 C 85 % 1003,0 hPa 0,0 l/m 0 min 2 min 44 W/m 25,1 km/h (4 Bft)
13.01.2015 13:48 10,1 C 7,2 C 86 % 1003,0 hPa 0,0 l/m 0 min 2 min 48 W/m 37,7 km/h (5 Bft)
13.01.2015 13:50 10,1 C 7,2 C 86 % 1002,9 hPa 0,0 l/m 0 min 2 min 38 W/m 29,3 km/h (5 Bft)
13.01.2015 13:52 10,0 C 7,2 C 86 % 1002,9 hPa 0,0 l/m 0 min 2 min 34 W/m 27,2 km/h (4 Bft)
13.01.2015 13:54 9,9 C 7,2 C 87 % 1002,9 hPa 0,0 l/m 0 min 2 min 30 W/m 31,4 km/h (5 Bft)
13.01.2015 13:56 9,9 C 7,2 C 87 % 1002,9 hPa 0,2 l/m 0 min 2 min 26 W/m 35,6 km/h (5 Bft)
13.01.2015 13:58 9,9 C 7,2 C 87 % 1002,9 hPa 0,0 l/m 0 min 2 min 26 W/m 46,0 km/h (6 Bft)
13.01.2015 14:00 9,9 C 7,2 C 88 % 1002,8 hPa 0,0 l/m 0 min 2 min 30 W/m 39,7 km/h (6 Bft)
13.01.2015 14:02 9,8 C 7,2 C 88 % 1002,9 hPa 0,0 l/m 0 min 2 min 30 W/m 33,5 km/h (5 Bft)
13.01.2015 14:04 9,8 C 7,2 C 88 % 1002,8 hPa 0,2 l/m 0 min 2 min 32 W/m 37,7 km/h (5 Bft)
13.01.2015 14:06 9,8 C 7,2 C 88 % 1002,9 hPa 0,0 l/m 0 min 2 min 31 W/m 39,7 km/h (6 Bft)
13.01.2015 14:08 9,8 C 7,2 C 88 % 1002,9 hPa 0,0 l/m 0 min 2 min 25 W/m 43,9 km/h (6 Bft)
13.01.2015 14:10 9,8 C 7,2 C 88 % 1003,0 hPa 0,0 l/m 0 min 2 min 21 W/m 35,6 km/h (5 Bft)
13.01.2015 14:12 9,7 C 7,2 C 89 % 1002,9 hPa 0,0 l/m 0 min 2 min 18 W/m 37,7 km/h (5 Bft)
13.01.2015 14:14 9,7 C 7,2 C 89 % 1003,0 hPa 0,0 l/m 0 min 2 min 16 W/m 35,6 km/h (5 Bft)
13.01.2015 14:16 9,7 C 7,2 C 89 % 1003,0 hPa 0,0 l/m 0 min 2 min 14 W/m 29,3 km/h (5 Bft)
13.01.2015 14:18 9,7 C 7,2 C 89 % 1003,0 hPa 0,0 l/m 0 min 2 min 12 W/m 37,7 km/h (5 Bft)
13.01.2015 14:20 9,7 C 7,2 C 89 % 1003,0 hPa 0,0 l/m 0 min 2 min 13 W/m 25,1 km/h (4 Bft)
13.01.2015 14:22 9,7 C 7,2 C 89 % 1003,0 hPa 0,0 l/m 0 min 2 min 13 W/m 29,3 km/h (5 Bft)
13.01.2015 14:24 9,7 C 7,2 C 89 % 1002,9 hPa 0,0 l/m 0 min 2 min 18 W/m 27,2 km/h (4 Bft)
13.01.2015 14:26 9,7 C 7,2 C 89 % 1002,9 hPa 0,0 l/m 0 min 2 min 21 W/m 35,6 km/h (5 Bft)
13.01.2015 14:28 9,6 C 7,2 C 89 % 1003,0 hPa 0,0 l/m 0 min 2 min 21 W/m 43,9 km/h (6 Bft)
13.01.2015 14:30 9,6 C 7,2 C 89 % 1002,9 hPa 0,0 l/m 0 min 0 min 17 W/m 18,8 km/h (3 Bft)
13.01.2015 14:32 9,6 C 7,2 C 89 % 1003,0 hPa 0,0 l/m 0 min 0 min 13 W/m 27,2 km/h (4 Bft)
13.01.2015 14:34 9,7 C 7,2 C 89 % 1003,1 hPa 0,0 l/m 0 min 0 min 14 W/m 37,7 km/h (5 Bft)
13.01.2015 14:36 9,7 C 7,2 C 89 % 1002,9 hPa 0,0 l/m 0 min 0 min 14 W/m 29,3 km/h (5 Bft)
13.01.2015 14:38 9,7 C 7,2 C 89 % 1002,9 hPa 0,0 l/m 0 min 0 min 11 W/m 29,3 km/h (5 Bft)
13.01.2015 14:40 9,7 C 7,8 C 89 % 1003,0 hPa 0,0 l/m 0 min 0 min 12 W/m 39,7 km/h (6 Bft)
13.01.2015 14:42 9,7 C 7,8 C 89 % 1003,0 hPa 0,0 l/m 0 min 0 min 13 W/m 37,7 km/h (5 Bft)
13.01.2015 14:44 9,7 C 7,8 C 89 % 1002,9 hPa 0,0 l/m 0 min 0 min 14 W/m 31,4 km/h (5 Bft)
13.01.2015 14:46 9,8 C 7,8 C 89 % 1002,9 hPa 0,0 l/m 0 min 0 min 15 W/m 33,5 km/h (5 Bft)
13.01.2015 14:48 9,8 C 7,8 C 89 % 1003,0 hPa 0,0 l/m 0 min 0 min 14 W/m 41,8 km/h (6 Bft)
13.01.2015 14:50 9,8 C 7,8 C 89 % 1003,1 hPa 0,0 l/m 0 min 0 min 13 W/m 35,6 km/h (5 Bft)
13.01.2015 14:52 9,8 C 7,8 C 88 % 1003,0 hPa 0,0 l/m 0 min 0 min 11 W/m 33,5 km/h (5 Bft)
13.01.2015 14:54 9,8 C 7,8 C 88 % 1003,1 hPa 0,0 l/m 0 min 0 min 12 W/m 39,7 km/h (6 Bft)
13.01.2015 14:56 9,9 C 7,8 C 88 % 1003,0 hPa 0,0 l/m 0 min 0 min 16 W/m 33,5 km/h (5 Bft)
13.01.2015 14:58 9,9 C 7,8 C 88 % 1003,0 hPa 0,0 l/m 0 min 0 min 14 W/m 37,7 km/h (5 Bft)
13.01.2015 15:00 9,9 C 7,8 C 88 % 1003,3 hPa 0,0 l/m 0 min 0 min 12 W/m 46,0 km/h (6 Bft)
13.01.2015 15:02 9,9 C 7,8 C 88 % 1003,2 hPa 0,0 l/m 0 min 0 min 15 W/m 52,3 km/h (7 Bft)
13.01.2015 15:04 10,0 C 7,8 C 87 % 1003,3 hPa 0,0 l/m 0 min 0 min 14 W/m 35,6 km/h (5 Bft)
13.01.2015 15:06 10,0 C 7,8 C 87 % 1003,3 hPa 0,0 l/m 0 min 0 min 16 W/m 33,5 km/h (5 Bft)
13.01.2015 15:08 10,1 C 7,8 C 87 % 1003,1 hPa 0,0 l/m 0 min 0 min 13 W/m 25,1 km/h (4 Bft)
13.01.2015 15:10 10,1 C 7,8 C 87 % 1003,4 hPa 0,0 l/m 0 min 0 min 11 W/m 39,7 km/h (6 Bft)
13.01.2015 15:12 10,1 C 7,8 C 87 % 1003,3 hPa 0,0 l/m 0 min 0 min 11 W/m 33,5 km/h (5 Bft)
13.01.2015 15:14 10,1 C 7,8 C 87 % 1003,4 hPa 0,0 l/m 0 min 0 min 11 W/m 54,4 km/h (7 Bft)
13.01.2015 15:16 10,2 C 7,8 C 86 % 1003,3 hPa 0,0 l/m 0 min 0 min 13 W/m 41,8 km/h (6 Bft)
13.01.2015 15:18 10,2 C 7,8 C 86 % 1003,2 hPa 0,0 l/m 0 min 0 min 19 W/m 43,9 km/h (6 Bft)
13.01.2015 15:20 10,2 C 7,8 C 86 % 1003,4 hPa 0,0 l/m 0 min 0 min 18 W/m 37,7 km/h (5 Bft)
13.01.2015 15:22 10,2 C 7,8 C 86 % 1003,6 hPa 0,0 l/m 0 min 0 min 15 W/m 37,7 km/h (5 Bft)
13.01.2015 15:24 10,2 C 7,8 C 86 % 1003,7 hPa 0,0 l/m 0 min 0 min 16 W/m 43,9 km/h (6 Bft)
13.01.2015 15:26 10,2 C 7,8 C 86 % 1003,7 hPa 0,0 l/m 0 min 0 min 18 W/m 46,0 km/h (6 Bft)
13.01.2015 15:28 10,3 C 8,3 C 86 % 1003,8 hPa 0,0 l/m 0 min 0 min 20 W/m 52,3 km/h (7 Bft)
13.01.2015 15:30 10,3 C 8,3 C 86 % 1003,7 hPa 0,0 l/m 0 min 0 min 16 W/m 37,7 km/h (5 Bft)
13.01.2015 15:32 10,3 C 8,3 C 86 % 1003,6 hPa 0,0 l/m 0 min 0 min 20 W/m 39,7 km/h (6 Bft)
13.01.2015 15:34 10,3 C 8,3 C 86 % 1003,8 hPa 0,0 l/m 0 min 0 min 26 W/m 41,8 km/h (6 Bft)
13.01.2015 15:36 10,3 C 8,3 C 86 % 1003,8 hPa 0,0 l/m 0 min 0 min 20 W/m 35,6 km/h (5 Bft)
13.01.2015 15:38 10,3 C 8,3 C 86 % 1003,8 hPa 0,0 l/m 0 min 0 min 14 W/m 41,8 km/h (6 Bft)
13.01.2015 15:40 10,3 C 8,3 C 86 % 1003,8 hPa 0,0 l/m 0 min 0 min 16 W/m 43,9 km/h (6 Bft)
13.01.2015 15:42 10,3 C 8,3 C 85 % 1003,8 hPa 0,0 l/m 0 min 0 min 21 W/m 43,9 km/h (6 Bft)
13.01.2015 15:44 10,3 C 8,3 C 85 % 1003,9 hPa 0,0 l/m 0 min 0 min 18 W/m 37,7 km/h (5 Bft)
13.01.2015 15:46 10,3 C 8,3 C 85 % 1003,9 hPa 0,0 l/m 0 min 0 min 24 W/m 48,1 km/h (6 Bft)
13.01.2015 15:48 10,3 C 8,3 C 85 % 1004,0 hPa 0,0 l/m 0 min 0 min 37 W/m 46,0 km/h (6 Bft)
13.01.2015 15:50 10,4 C 8,9 C 85 % 1004,1 hPa 0,0 l/m 0 min 0 min 29 W/m 43,9 km/h (6 Bft)
13.01.2015 15:52 10,4 C 8,3 C 85 % 1004,0 hPa 0,0 l/m 0 min 0 min 24 W/m 35,6 km/h (5 Bft)
13.01.2015 15:54 10,4 C 8,3 C 85 % 1004,1 hPa 0,0 l/m 0 min 2 min 20 W/m 41,8 km/h (6 Bft)
13.01.2015 15:56 10,4 C 8,3 C 85 % 1004,1 hPa 0,0 l/m 0 min 2 min 20 W/m 37,7 km/h (5 Bft)
13.01.2015 15:58 10,4 C 8,3 C 86 % 1004,1 hPa 0,0 l/m 0 min 2 min 41 W/m 43,9 km/h (6 Bft)
13.01.2015 16:00 10,4 C 8,3 C 86 % 1004,0 hPa 0,0 l/m 2 min 2 min 63 W/m 48,1 km/h (6 Bft)
13.01.2015 16:02 10,4 C 8,3 C 86 % 1004,0 hPa 0,0 l/m 2 min 2 min 54 W/m 46,0 km/h (6 Bft)
13.01.2015 16:04 10,3 C 7,8 C 86 % 1004,1 hPa 0,0 l/m 0 min 2 min 40 W/m 39,7 km/h (6 Bft)
13.01.2015 16:06 10,3 C 7,8 C 86 % 1004,2 hPa 0,0 l/m 0 min 2 min 17 W/m 43,9 km/h (6 Bft)
13.01.2015 16:08 10,3 C 7,8 C 86 % 1004,2 hPa 0,0 l/m 0 min 0 min 13 W/m 31,4 km/h (5 Bft)
13.01.2015 16:10 10,2 C 7,8 C 87 % 1004,2 hPa 0,0 l/m 0 min 2 min 14 W/m 46,0 km/h (6 Bft)
13.01.2015 16:12 10,2 C 7,8 C 87 % 1004,4 hPa 0,2 l/m 0 min 2 min 9 W/m 50,2 km/h (7 Bft)
13.01.2015 16:14 10,2 C 7,8 C 87 % 1004,4 hPa 0,0 l/m 0 min 2 min 6 W/m 46,0 km/h (6 Bft)
13.01.2015 16:16 10,2 C 7,8 C 87 % 1004,5 hPa 0,0 l/m 0 min 2 min 6 W/m 43,9 km/h (6 Bft)
13.01.2015 16:18 10,1 C 7,8 C 88 % 1004,5 hPa 0,0 l/m 0 min 2 min 8 W/m 41,8 km/h (6 Bft)
13.01.2015 16:20 10,1 C 7,2 C 88 % 1004,4 hPa 0,2 l/m 0 min 2 min 6 W/m 39,7 km/h (6 Bft)
13.01.2015 16:22 10,0 C 7,2 C 88 % 1004,5 hPa 0,0 l/m 0 min 2 min 0 W/m 35,6 km/h (5 Bft)
13.01.2015 16:24 9,9 C 7,2 C 89 % 1004,5 hPa 0,0 l/m 0 min 2 min 0 W/m 46,0 km/h (6 Bft)
13.01.2015 16:26 9,9 C 7,2 C 89 % 1004,6 hPa 0,0 l/m 0 min 2 min 0 W/m 43,9 km/h (6 Bft)
13.01.2015 16:28 9,8 C 7,2 C 89 % 1004,6 hPa 0,0 l/m 0 min 2 min 0 W/m 37,7 km/h (5 Bft)
13.01.2015 16:30 9,8 C 7,2 C 89 % 1004,7 hPa 0,0 l/m 0 min 2 min 0 W/m 25,1 km/h (4 Bft)
13.01.2015 16:32 9,7 C 7,2 C 90 % 1004,7 hPa 0,0 l/m 0 min 2 min 0 W/m 25,1 km/h (4 Bft)
13.01.2015 16:34 9,7 C 7,2 C 90 % 1004,9 hPa 0,0 l/m 0 min 2 min 0 W/m 27,2 km/h (4 Bft)
13.01.2015 16:36 9,6 C 7,2 C 90 % 1005,0 hPa 0,0 l/m 0 min 2 min 0 W/m 33,5 km/h (5 Bft)
13.01.2015 16:38 9,6 C 7,2 C 91 % 1004,9 hPa 0,0 l/m 0 min 2 min 0 W/m 20,9 km/h (4 Bft)
13.01.2015 16:40 9,4 C 7,2 C 90 % 1004,9 hPa 0,0 l/m 0 min 2 min 0 W/m 33,5 km/h (5 Bft)
13.01.2015 16:42 9,4 C 7,2 C 91 % 1004,8 hPa 0,0 l/m 0 min 2 min 0 W/m 25,1 km/h (4 Bft)
13.01.2015 16:44 9,3 C 6,7 C 91 % 1004,8 hPa 0,0 l/m 0 min 2 min 4 W/m 14,6 km/h (3 Bft)
13.01.2015 16:46 9,2 C 6,7 C 91 % 1004,8 hPa 0,0 l/m 0 min 2 min 5 W/m 20,9 km/h (4 Bft)
13.01.2015 16:48 9,2 C 6,7 C 91 % 1004,9 hPa 0,0 l/m 0 min 0 min 4 W/m 25,1 km/h (4 Bft)
13.01.2015 16:50 9,1 C 6,7 C 91 % 1005,0 hPa 0,0 l/m 0 min 0 min 0 W/m 16,7 km/h (3 Bft)
13.01.2015 16:52 9,1 C 6,7 C 91 % 1005,0 hPa 0,0 l/m 0 min 0 min 0 W/m 12,6 km/h (3 Bft)
13.01.2015 16:54 9,0 C 6,7 C 91 % 1004,9 hPa 0,0 l/m 0 min 0 min 0 W/m 12,6 km/h (3 Bft)
13.01.2015 16:56 8,9 C 6,7 C 91 % 1004,9 hPa 0,0 l/m 0 min 0 min 0 W/m 12,6 km/h (3 Bft)
13.01.2015 16:58 8,9 C 6,7 C 91 % 1004,9 hPa 0,0 l/m 0 min 0 min 0 W/m 16,7 km/h (3 Bft)
13.01.2015 17:00 8,9 C 6,7 C 91 % 1004,9 hPa 0,0 l/m 0 min 0 min 0 W/m 16,7 km/h (3 Bft)
13.01.2015 17:02 8,8 C 6,7 C 91 % 1004,9 hPa 0,0 l/m 0 min 0 min 0 W/m 18,8 km/h (3 Bft)
13.01.2015 17:04 8,8 C 6,7 C 91 % 1004,9 hPa 0,0 l/m 0 min 0 min 0 W/m 20,9 km/h (4 Bft)
13.01.2015 17:06 8,7 C 6,7 C 91 % 1005,0 hPa 0,0 l/m 0 min 0 min 0 W/m 16,7 km/h (3 Bft)
13.01.2015 17:08 8,7 C 6,7 C 91 % 1005,0 hPa 0,0 l/m 0 min 0 min 0 W/m 23,0 km/h (4 Bft)
13.01.2015 17:10 8,6 C 6,7 C 92 % 1005,1 hPa 0,0 l/m 0 min 0 min 0 W/m 14,6 km/h (3 Bft)
13.01.2015 17:12 8,6 C 6,7 C 91 % 1005,0 hPa 0,0 l/m 0 min 0 min 0 W/m 20,9 km/h (4 Bft)
13.01.2015 17:14 8,5 C 6,7 C 91 % 1005,0 hPa 0,0 l/m 0 min 0 min 0 W/m 16,7 km/h (3 Bft)
13.01.2015 17:16 8,5 C 6,7 C 92 % 1005,1 hPa 0,0 l/m 0 min 0 min 0 W/m 16,7 km/h (3 Bft)
13.01.2015 17:18 8,5 C 6,7 C 92 % 1005,2 hPa 0,0 l/m 0 min 0 min 0 W/m 20,9 km/h (4 Bft)
13.01.2015 17:20 8,4 C 6,7 C 92 % 1005,2 hPa 0,0 l/m 0 min 0 min 0 W/m 16,7 km/h (3 Bft)
13.01.2015 17:22 8,4 C 6,7 C 92 % 1005,3 hPa 0,0 l/m 0 min 0 min 0 W/m 20,9 km/h (4 Bft)
13.01.2015 17:24 8,4 C 6,7 C 92 % 1005,4 hPa 0,0 l/m 0 min 2 min 0 W/m 23,0 km/h (4 Bft)
13.01.2015 17:26 8,3 C 6,7 C 92 % 1005,3 hPa 0,2 l/m 0 min 2 min 0 W/m 18,8 km/h (3 Bft)
13.01.2015 17:28 8,3 C 6,1 C 92 % 1005,2 hPa 0,0 l/m 0 min 2 min 0 W/m 23,0 km/h (4 Bft)
13.01.2015 17:30 8,3 C 6,1 C 92 % 1005,2 hPa 0,0 l/m 0 min 2 min 0 W/m 23,0 km/h (4 Bft)
13.01.2015 17:32 8,3 C 6,1 C 92 % 1005,3 hPa 0,0 l/m 0 min 2 min 0 W/m 23,0 km/h (4 Bft)
13.01.2015 17:34 8,3 C 6,1 C 92 % 1005,5 hPa 0,0 l/m 0 min 2 min 0 W/m 23,0 km/h (4 Bft)
13.01.2015 17:36 8,2 C 6,1 C 92 % 1005,5 hPa 0,0 l/m 0 min 2 min 0 W/m 25,1 km/h (4 Bft)
13.01.2015 17:38 8,2 C 6,1 C 92 % 1005,5 hPa 0,2 l/m 0 min 2 min 0 W/m 29,3 km/h (5 Bft)
13.01.2015 17:40 8,2 C 6,1 C 92 % 1005,6 hPa 0,0 l/m 0 min 2 min 0 W/m 20,9 km/h (4 Bft)
13.01.2015 17:42 8,2 C 6,1 C 92 % 1005,5 hPa 0,0 l/m 0 min 2 min 0 W/m 23,0 km/h (4 Bft)
13.01.2015 17:44 8,1 C 6,1 C 93 % 1005,5 hPa 0,0 l/m 0 min 2 min 0 W/m 16,7 km/h (3 Bft)
13.01.2015 17:46 8,1 C 6,1 C 93 % 1005,4 hPa 0,0 l/m 0 min 2 min 0 W/m 23,0 km/h (4 Bft)
13.01.2015 17:48 8,1 C 6,1 C 93 % 1005,2 hPa 0,0 l/m 0 min 2 min 0 W/m 14,6 km/h (3 Bft)
13.01.2015 17:50 8,1 C 6,1 C 93 % 1005,4 hPa 0,2 l/m 0 min 2 min 0 W/m 18,8 km/h (3 Bft)
13.01.2015 17:52 8,0 C 6,1 C 93 % 1005,5 hPa 0,0 l/m 0 min 2 min 0 W/m 23,0 km/h (4 Bft)
13.01.2015 17:54 8,0 C 6,1 C 93 % 1005,5 hPa 0,0 l/m 0 min 2 min 0 W/m 23,0 km/h (4 Bft)
13.01.2015 17:56 7,9 C 6,1 C 93 % 1005,5 hPa 0,0 l/m 0 min 2 min 0 W/m 14,6 km/h (3 Bft)
13.01.2015 17:58 7,9 C 6,1 C 93 % 1005,5 hPa 0,0 l/m 0 min 2 min 0 W/m 16,7 km/h (3 Bft)
13.01.2015 18:00 7,9 C 6,1 C 93 % 1005,5 hPa 0,0 l/m 0 min 2 min 0 W/m 25,1 km/h (4 Bft)
13.01.2015 18:02 7,9 C 6,1 C 93 % 1005,5 hPa 0,0 l/m 0 min 2 min 0 W/m 14,6 km/h (3 Bft)
13.01.2015 18:06 7,9 C 6,1 C 93 % 1005,6 hPa 0,0 l/m 0 min 2 min 0 W/m 18,8 km/h (3 Bft)
13.01.2015 18:08 7,8 C 6,1 C 94 % 1005,6 hPa 0,0 l/m 0 min 2 min 0 W/m 14,6 km/h (3 Bft)
13.01.2015 18:10 7,9 C 6,1 C 94 % 1005,5 hPa 0,0 l/m 0 min 2 min 0 W/m 16,7 km/h (3 Bft)
13.01.2015 18:12 7,8 C 6,1 C 93 % 1005,5 hPa 0,0 l/m 0 min 2 min 0 W/m 23,0 km/h (4 Bft)
13.01.2015 18:14 7,8 C 5,6 C 93 % 1005,6 hPa 0,0 l/m 0 min 0 min 0 W/m 18,8 km/h (3 Bft)
13.01.2015 18:16 7,8 C 5,6 C 94 % 1005,6 hPa 0,0 l/m 0 min 0 min 0 W/m 18,8 km/h (3 Bft)
13.01.2015 18:18 7,8 C 5,6 C 94 % 1005,6 hPa 0,0 l/m 0 min 0 min 0 W/m 16,7 km/h (3 Bft)
13.01.2015 18:20 7,7 C 5,6 C 94 % 1005,6 hPa 0,0 l/m 0 min 0 min 0 W/m 20,9 km/h (4 Bft)
13.01.2015 18:22 7,7 C 5,6 C 94 % 1005,6 hPa 0,0 l/m 0 min 0 min 0 W/m 23,0 km/h (4 Bft)
13.01.2015 18:24 7,7 C 5,6 C 94 % 1005,5 hPa 0,0 l/m 0 min 0 min 0 W/m 20,9 km/h (4 Bft)
13.01.2015 18:26 7,6 C 5,6 C 94 % 1005,6 hPa 0,0 l/m 0 min 0 min 0 W/m 20,9 km/h (4 Bft)
13.01.2015 18:28 7,6 C 5,6 C 94 % 1005,5 hPa 0,0 l/m 0 min 0 min 0 W/m 29,3 km/h (5 Bft)
13.01.2015 18:30 7,6 C 5,6 C 94 % 1005,5 hPa 0,0 l/m 0 min 0 min 0 W/m 23,0 km/h (4 Bft)
13.01.2015 18:32 7,6 C 5,6 C 94 % 1005,6 hPa 0,0 l/m 0 min 0 min 0 W/m 20,9 km/h (4 Bft)
13.01.2015 18:34 7,6 C 5,6 C 94 % 1005,6 hPa 0,0 l/m 0 min 0 min 0 W/m 20,9 km/h (4 Bft)
13.01.2015 18:36 7,5 C 5,6 C 94 % 1005,7 hPa 0,0 l/m 0 min 0 min 0 W/m 25,1 km/h (4 Bft)
13.01.2015 18:38 7,5 C 5,6 C 94 % 1005,7 hPa 0,0 l/m 0 min 0 min 0 W/m 18,8 km/h (3 Bft)
13.01.2015 18:40 7,5 C 5,6 C 94 % 1005,6 hPa 0,0 l/m 0 min 0 min 0 W/m 25,1 km/h (4 Bft)
13.01.2015 18:42 7,4 C 5,6 C 94 % 1005,8 hPa 0,0 l/m 0 min 0 min 0 W/m 25,1 km/h (4 Bft)
13.01.2015 18:44 7,4 C 5,6 C 94 % 1005,8 hPa 0,0 l/m 0 min 0 min 0 W/m 23,0 km/h (4 Bft)
13.01.2015 18:46 7,4 C 5,6 C 94 % 1005,9 hPa 0,0 l/m 0 min 0 min 0 W/m 23,0 km/h (4 Bft)
13.01.2015 18:48 7,4 C 5,6 C 94 % 1005,8 hPa 0,0 l/m 0 min 0 min 0 W/m 29,3 km/h (5 Bft)
13.01.2015 18:50 7,4 C 5,6 C 94 % 1005,9 hPa 0,0 l/m 0 min 0 min 0 W/m 25,1 km/h (4 Bft)
13.01.2015 18:52 7,4 C 5,6 C 94 % 1005,8 hPa 0,0 l/m 0 min 0 min 0 W/m 25,1 km/h (4 Bft)
13.01.2015 18:54 7,4 C 5,6 C 94 % 1005,7 hPa 0,0 l/m 0 min 0 min 0 W/m 31,4 km/h (5 Bft)
13.01.2015 18:56 7,4 C 5,6 C 94 % 1005,7 hPa 0,0 l/m 0 min 0 min 0 W/m 33,5 km/h (5 Bft)
13.01.2015 18:58 7,4 C 5,6 C 94 % 1005,6 hPa 0,0 l/m 0 min 0 min 0 W/m 27,2 km/h (4 Bft)
13.01.2015 19:00 7,4 C 5,6 C 94 % 1005,6 hPa 0,0 l/m 0 min 0 min 0 W/m 27,2 km/h (4 Bft)
13.01.2015 19:02 7,4 C 5,6 C 94 % 1005,6 hPa 0,0 l/m 0 min 0 min 0 W/m 41,8 km/h (6 Bft)
13.01.2015 19:04 7,4 C 5,6 C 94 % 1005,6 hPa 0,0 l/m 0 min 0 min 0 W/m 33,5 km/h (5 Bft)
13.01.2015 19:06 7,4 C 5,6 C 94 % 1005,7 hPa 0,0 l/m 0 min 0 min 0 W/m 33,5 km/h (5 Bft)
13.01.2015 19:08 7,4 C 5,6 C 94 % 1005,7 hPa 0,0 l/m 0 min 0 min 0 W/m 33,5 km/h (5 Bft)
13.01.2015 19:10 7,5 C 5,6 C 94 % 1005,7 hPa 0,0 l/m 0 min 0 min 0 W/m 29,3 km/h (5 Bft)
13.01.2015 19:12 7,4 C 5,6 C 94 % 1005,7 hPa 0,0 l/m 0 min 0 min 0 W/m 35,6 km/h (5 Bft)
13.01.2015 19:14 7,5 C 5,6 C 94 % 1005,7 hPa 0,0 l/m 0 min 0 min 0 W/m 35,6 km/h (5 Bft)
13.01.2015 19:16 7,5 C 5,6 C 93 % 1005,7 hPa 0,0 l/m 0 min 0 min 0 W/m 29,3 km/h (5 Bft)
13.01.2015 19:18 7,6 C 5,6 C 94 % 1005,7 hPa 0,0 l/m 0 min 0 min 0 W/m 35,6 km/h (5 Bft)
13.01.2015 19:20 7,6 C 5,6 C 93 % 1005,9 hPa 0,0 l/m 0 min 0 min 0 W/m 33,5 km/h (5 Bft)
13.01.2015 19:22 7,6 C 5,6 C 93 % 1006,1 hPa 0,0 l/m 0 min 0 min 0 W/m 31,4 km/h (5 Bft)
13.01.2015 19:24 7,6 C 5,6 C 93 % 1006,0 hPa 0,0 l/m 0 min 0 min 0 W/m 23,0 km/h (4 Bft)
13.01.2015 19:26 7,6 C 5,6 C 93 % 1006,0 hPa 0,0 l/m 0 min 0 min 0 W/m 23,0 km/h (4 Bft)
13.01.2015 19:28 7,6 C 5,6 C 93 % 1006,0 hPa 0,0 l/m 0 min 0 min 0 W/m 27,2 km/h (4 Bft)
13.01.2015 19:30 7,6 C 5,6 C 93 % 1005,9 hPa 0,0 l/m 0 min 0 min 0 W/m 25,1 km/h (4 Bft)
13.01.2015 19:32 7,6 C 5,6 C 93 % 1005,9 hPa 0,0 l/m 0 min 0 min 0 W/m 25,1 km/h (4 Bft)
13.01.2015 19:34 7,7 C 5,6 C 92 % 1005,9 hPa 0,0 l/m 0 min 0 min 0 W/m 25,1 km/h (4 Bft)
13.01.2015 19:36 7,7 C 5,6 C 92 % 1005,9 hPa 0,0 l/m 0 min 0 min 0 W/m 20,9 km/h (4 Bft)
13.01.2015 19:38 7,7 C 5,6 C 92 % 1006,0 hPa 0,0 l/m 0 min 0 min 0 W/m 23,0 km/h (4 Bft)
13.01.2015 19:40 7,7 C 5,6 C 92 % 1005,9 hPa 0,0 l/m 0 min 0 min 0 W/m 27,2 km/h (4 Bft)
13.01.2015 19:42 7,7 C 5,6 C 92 % 1006,0 hPa 0,0 l/m 0 min 0 min 0 W/m 25,1 km/h (4 Bft)
13.01.2015 19:44 7,7 C 5,6 C 92 % 1006,0 hPa 0,0 l/m 0 min 0 min 0 W/m 23,0 km/h (4 Bft)
13.01.2015 19:46 7,7 C 5,6 C 92 % 1006,0 hPa 0,0 l/m 0 min 0 min 0 W/m 23,0 km/h (4 Bft)
13.01.2015 19:48 7,7 C 5,6 C 92 % 1006,1 hPa 0,0 l/m 0 min 0 min 0 W/m 27,2 km/h (4 Bft)
13.01.2015 19:50 7,7 C 5,6 C 92 % 1006,1 hPa 0,0 l/m 0 min 0 min 0 W/m 25,1 km/h (4 Bft)
13.01.2015 19:52 7,7 C 5,6 C 92 % 1006,1 hPa 0,0 l/m 0 min 0 min 0 W/m 33,5 km/h (5 Bft)
13.01.2015 19:54 7,7 C 5,6 C 92 % 1006,1 hPa 0,0 l/m 0 min 0 min 0 W/m 18,8 km/h (3 Bft)
13.01.2015 19:56 7,7 C 5,6 C 92 % 1006,1 hPa 0,0 l/m 0 min 0 min 0 W/m 33,5 km/h (5 Bft)
13.01.2015 19:58 7,7 C 5,6 C 91 % 1006,1 hPa 0,0 l/m 0 min 0 min 0 W/m 35,6 km/h (5 Bft)
13.01.2015 20:00 7,7 C 5,6 C 91 % 1006,1 hPa 0,0 l/m 0 min 0 min 0 W/m 31,4 km/h (5 Bft)
13.01.2015 20:02 7,7 C 5,6 C 91 % 1006,1 hPa 0,0 l/m 0 min 0 min 0 W/m 35,6 km/h (5 Bft)
13.01.2015 20:04 7,7 C 5,6 C 91 % 1006,2 hPa 0,0 l/m 0 min 0 min 0 W/m 29,3 km/h (5 Bft)
13.01.2015 20:06 7,7 C 5,6 C 91 % 1006,2 hPa 0,0 l/m 0 min 0 min 0 W/m 35,6 km/h (5 Bft)
13.01.2015 20:08 7,7 C 5,6 C 91 % 1006,1 hPa 0,0 l/m 0 min 0 min 0 W/m 35,6 km/h (5 Bft)
13.01.2015 20:10 7,7 C 5,6 C 91 % 1006,1 hPa 0,0 l/m 0 min 0 min 0 W/m 29,3 km/h (5 Bft)
13.01.2015 20:12 7,7 C 5,6 C 91 % 1006,1 hPa 0,0 l/m 0 min 0 min 0 W/m 31,4 km/h (5 Bft)
13.01.2015 20:14 7,7 C 5,6 C 91 % 1006,1 hPa 0,0 l/m 0 min 0 min 0 W/m 35,6 km/h (5 Bft)
13.01.2015 20:16 7,7 C 5,6 C 91 % 1006,2 hPa 0,0 l/m 0 min 0 min 0 W/m 25,1 km/h (4 Bft)
13.01.2015 20:18 7,7 C 5,6 C 91 % 1006,1 hPa 0,0 l/m 0 min 0 min 0 W/m 23,0 km/h (4 Bft)
13.01.2015 20:20 7,7 C 5,6 C 91 % 1006,1 hPa 0,0 l/m 0 min 0 min 0 W/m 20,9 km/h (4 Bft)
13.01.2015 20:22 7,7 C 5,6 C 91 % 1006,1 hPa 0,0 l/m 0 min 0 min 0 W/m 20,9 km/h (4 Bft)
13.01.2015 20:24 7,7 C 5,6 C 90 % 1006,1 hPa 0,0 l/m 0 min 0 min 0 W/m 33,5 km/h (5 Bft)
13.01.2015 20:26 7,7 C 5,6 C 90 % 1006,2 hPa 0,0 l/m 0 min 0 min 0 W/m 29,3 km/h (5 Bft)
13.01.2015 20:28 7,7 C 5,6 C 90 % 1006,1 hPa 0,0 l/m 0 min 0 min 0 W/m 31,4 km/h (5 Bft)
13.01.2015 20:30 7,7 C 5,6 C 90 % 1006,1 hPa 0,0 l/m 0 min 0 min 0 W/m 33,5 km/h (5 Bft)
13.01.2015 20:32 7,7 C 5,6 C 90 % 1006,2 hPa 0,0 l/m 0 min 0 min 0 W/m 20,9 km/h (4 Bft)
13.01.2015 20:34 7,7 C 5,6 C 90 % 1006,2 hPa 0,0 l/m 0 min 0 min 0 W/m 29,3 km/h (5 Bft)
13.01.2015 20:36 7,7 C 5,6 C 89 % 1006,1 hPa 0,0 l/m 0 min 0 min 0 W/m 27,2 km/h (4 Bft)
13.01.2015 20:38 7,7 C 5,6 C 89 % 1006,2 hPa 0,0 l/m 0 min 0 min 0 W/m 31,4 km/h (5 Bft)
13.01.2015 20:40 7,7 C 5,6 C 89 % 1006,2 hPa 0,0 l/m 0 min 0 min 0 W/m 46,0 km/h (6 Bft)
13.01.2015 20:42 7,7 C 5,6 C 89 % 1006,3 hPa 0,0 l/m 0 min 0 min 0 W/m 41,8 km/h (6 Bft)
13.01.2015 20:44 7,7 C 5,0 C 89 % 1006,3 hPa 0,0 l/m 0 min 0 min 0 W/m 31,4 km/h (5 Bft)
13.01.2015 20:46 7,6 C 5,0 C 89 % 1006,3 hPa 0,0 l/m 0 min 0 min 0 W/m 29,3 km/h (5 Bft)
13.01.2015 20:48 7,6 C 5,0 C 89 % 1006,3 hPa 0,0 l/m 0 min 0 min 0 W/m 33,5 km/h (5 Bft)
13.01.2015 20:50 7,6 C 5,0 C 89 % 1006,3 hPa 0,0 l/m 0 min 0 min 0 W/m 33,5 km/h (5 Bft)
13.01.2015 20:52 7,6 C 5,6 C 89 % 1006,2 hPa 0,0 l/m 0 min 0 min 0 W/m 29,3 km/h (5 Bft)
13.01.2015 20:54 7,6 C 5,0 C 89 % 1006,2 hPa 0,0 l/m 0 min 0 min 0 W/m 27,2 km/h (4 Bft)
13.01.2015 20:56 7,6 C 5,0 C 89 % 1006,2 hPa 0,0 l/m 0 min 0 min 0 W/m 23,0 km/h (4 Bft)
13.01.2015 20:58 7,6 C 5,0 C 88 % 1006,2 hPa 0,0 l/m 0 min 0 min 0 W/m 25,1 km/h (4 Bft)
13.01.2015 21:00 7,6 C 5,0 C 88 % 1006,2 hPa 0,0 l/m 0 min 0 min 0 W/m 27,2 km/h (4 Bft)
13.01.2015 21:02 7,6 C 5,0 C 88 % 1006,2 hPa 0,0 l/m 0 min 0 min 0 W/m 31,4 km/h (5 Bft)
13.01.2015 21:04 7,5 C 5,0 C 88 % 1006,3 hPa 0,0 l/m 0 min 0 min 0 W/m 29,3 km/h (5 Bft)
13.01.2015 21:06 7,5 C 5,0 C 88 % 1006,2 hPa 0,0 l/m 0 min 0 min 0 W/m 29,3 km/h (5 Bft)
13.01.2015 21:08 7,5 C 5,0 C 88 % 1006,2 hPa 0,0 l/m 0 min 0 min 0 W/m 25,1 km/h (4 Bft)
13.01.2015 21:10 7,5 C 5,0 C 88 % 1006,3 hPa 0,0 l/m 0 min 0 min 0 W/m 23,0 km/h (4 Bft)
13.01.2015 21:12 7,5 C 5,0 C 88 % 1006,3 hPa 0,0 l/m 0 min 0 min 0 W/m 29,3 km/h (5 Bft)
13.01.2015 21:14 7,5 C 5,0 C 88 % 1006,3 hPa 0,0 l/m 0 min 0 min 0 W/m 25,1 km/h (4 Bft)
13.01.2015 21:16 7,5 C 5,0 C 88 % 1006,2 hPa 0,0 l/m 0 min 0 min 0 W/m 20,9 km/h (4 Bft)
13.01.2015 21:18 7,5 C 5,0 C 88 % 1006,2 hPa 0,0 l/m 0 min 0 min 0 W/m 23,0 km/h (4 Bft)
13.01.2015 21:20 7,4 C 5,0 C 88 % 1006,2 hPa 0,0 l/m 0 min 0 min 0 W/m 29,3 km/h (5 Bft)
13.01.2015 21:22 7,4 C 5,0 C 88 % 1006,3 hPa 0,0 l/m 0 min 0 min 0 W/m 25,1 km/h (4 Bft)
13.01.2015 21:24 7,4 C 5,0 C 88 % 1006,2 hPa 0,0 l/m 0 min 0 min 0 W/m 27,2 km/h (4 Bft)
13.01.2015 21:26 7,4 C 5,0 C 88 % 1006,3 hPa 0,0 l/m 0 min 0 min 0 W/m 25,1 km/h (4 Bft)
13.01.2015 21:28 7,4 C 5,0 C 88 % 1006,3 hPa 0,0 l/m 0 min 0 min 0 W/m 16,7 km/h (3 Bft)
13.01.2015 21:30 7,4 C 5,0 C 88 % 1006,3 hPa 0,0 l/m 0 min 0 min 0 W/m 20,9 km/h (4 Bft)
13.01.2015 21:32 7,4 C 5,0 C 88 % 1006,3 hPa 0,0 l/m 0 min 0 min 0 W/m 18,8 km/h (3 Bft)
13.01.2015 21:34 7,4 C 5,0 C 88 % 1006,3 hPa 0,0 l/m 0 min 0 min 0 W/m 27,2 km/h (4 Bft)
13.01.2015 21:35 7,4 C 5,0 C 88 % 1006,3 hPa 0,0 l/m 0 min 0 min 0 W/m 29,3 km/h (5 Bft)
13.01.2015 21:38 7,4 C 5,0 C 88 % 1006,3 hPa 0,0 l/m 0 min 0 min 0 W/m 20,9 km/h (4 Bft)
13.01.2015 21:40 7,4 C 5,0 C 88 % 1006,4 hPa 0,0 l/m 0 min 0 min 0 W/m 29,3 km/h (5 Bft)
13.01.2015 21:42 7,4 C 5,6 C 88 % 1006,3 hPa 0,0 l/m 0 min 0 min 0 W/m 29,3 km/h (5 Bft)
13.01.2015 21:44 7,4 C 5,0 C 88 % 1006,3 hPa 0,0 l/m 0 min 0 min 0 W/m 31,4 km/h (5 Bft)
13.01.2015 21:46 7,5 C 5,6 C 88 % 1006,3 hPa 0,0 l/m 0 min 0 min 0 W/m 18,8 km/h (3 Bft)
13.01.2015 21:48 7,5 C 5,0 C 88 % 1006,3 hPa 0,0 l/m 0 min 0 min 0 W/m 27,2 km/h (4 Bft)
13.01.2015 21:50 7,5 C 5,6 C 88 % 1006,3 hPa 0,0 l/m 0 min 0 min 0 W/m 25,1 km/h (4 Bft)
13.01.2015 21:52 7,5 C 5,6 C 87 % 1006,3 hPa 0,0 l/m 0 min 0 min 0 W/m 33,5 km/h (5 Bft)
13.01.2015 21:54 7,6 C 5,6 C 87 % 1006,3 hPa 0,0 l/m 0 min 0 min 0 W/m 29,3 km/h (5 Bft)
13.01.2015 21:56 7,6 C 5,6 C 87 % 1006,3 hPa 0,0 l/m 0 min 0 min 0 W/m 25,1 km/h (4 Bft)
13.01.2015 21:58 7,6 C 5,6 C 87 % 1006,4 hPa 0,0 l/m 0 min 0 min 0 W/m 20,9 km/h (4 Bft)
13.01.2015 22:00 7,6 C 5,0 C 87 % 1006,4 hPa 0,0 l/m 0 min 0 min 0 W/m 27,2 km/h (4 Bft)
13.01.2015 22:02 7,6 C 5,0 C 87 % 1006,4 hPa 0,0 l/m 0 min 0 min 0 W/m 25,1 km/h (4 Bft)
13.01.2015 22:04 7,6 C 5,0 C 87 % 1006,4 hPa 0,0 l/m 0 min 0 min 0 W/m 23,0 km/h (4 Bft)
13.01.2015 22:06 7,6 C 5,0 C 87 % 1006,4 hPa 0,0 l/m 0 min 0 min 0 W/m 27,2 km/h (4 Bft)
13.01.2015 22:08 7,6 C 5,0 C 87 % 1006,4 hPa 0,0 l/m 0 min 0 min 0 W/m 25,1 km/h (4 Bft)
13.01.2015 22:10 7,6 C 5,6 C 87 % 1006,4 hPa 0,0 l/m 0 min 0 min 0 W/m 27,2 km/h (4 Bft)
13.01.2015 22:12 7,6 C 5,6 C 86 % 1006,5 hPa 0,0 l/m 0 min 0 min 0 W/m 23,0 km/h (4 Bft)
13.01.2015 22:14 7,6 C 5,0 C 86 % 1006,5 hPa 0,0 l/m 0 min 0 min 0 W/m 23,0 km/h (4 Bft)
13.01.2015 22:16 7,6 C 5,0 C 86 % 1006,5 hPa 0,0 l/m 0 min 0 min 0 W/m 18,8 km/h (3 Bft)
13.01.2015 22:18 7,5 C 5,0 C 86 % 1006,5 hPa 0,0 l/m 0 min 0 min 0 W/m 23,0 km/h (4 Bft)
13.01.2015 22:20 7,5 C 5,0 C 86 % 1006,4 hPa 0,0 l/m 0 min 0 min 0 W/m 23,0 km/h (4 Bft)
13.01.2015 22:22 7,5 C 5,0 C 86 % 1006,4 hPa 0,0 l/m 0 min 0 min 0 W/m 25,1 km/h (4 Bft)
13.01.2015 22:24 7,5 C 5,0 C 86 % 1006,5 hPa 0,0 l/m 0 min 0 min 0 W/m 20,9 km/h (4 Bft)
13.01.2015 22:26 7,4 C 5,0 C 86 % 1006,4 hPa 0,0 l/m 0 min 0 min 0 W/m 25,1 km/h (4 Bft)
13.01.2015 22:28 7,4 C 5,0 C 86 % 1006,4 hPa 0,0 l/m 0 min 0 min 0 W/m 14,6 km/h (3 Bft)
13.01.2015 22:30 7,4 C 5,0 C 86 % 1006,3 hPa 0,0 l/m 0 min 0 min 0 W/m 25,1 km/h (4 Bft)
13.01.2015 22:32 7,4 C 5,0 C 86 % 1006,3 hPa 0,0 l/m 0 min 0 min 0 W/m 31,4 km/h (5 Bft)
13.01.2015 22:34 7,4 C 5,0 C 86 % 1006,3 hPa 0,0 l/m 0 min 0 min 0 W/m 23,0 km/h (4 Bft)
13.01.2015 22:36 7,4 C 5,0 C 86 % 1006,3 hPa 0,0 l/m 0 min 0 min 0 W/m 20,9 km/h (4 Bft)
13.01.2015 22:38 7,4 C 5,0 C 86 % 1006,3 hPa 0,0 l/m 0 min 0 min 0 W/m 23,0 km/h (4 Bft)
13.01.2015 22:40 7,4 C 5,6 C 86 % 1006,3 hPa 0,0 l/m 0 min 0 min 0 W/m 29,3 km/h (5 Bft)
13.01.2015 22:42 7,4 C 5,6 C 85 % 1006,3 hPa 0,0 l/m 0 min 0 min 0 W/m 35,6 km/h (5 Bft)
13.01.2015 22:44 7,4 C 5,6 C 85 % 1006,4 hPa 0,0 l/m 0 min 0 min 0 W/m 31,4 km/h (5 Bft)
13.01.2015 22:46 7,4 C 5,6 C 85 % 1006,3 hPa 0,0 l/m 0 min 0 min 0 W/m 29,3 km/h (5 Bft)
13.01.2015 22:48 7,5 C 5,6 C 85 % 1006,4 hPa 0,0 l/m 0 min 0 min 0 W/m 27,2 km/h (4 Bft)
13.01.2015 22:50 7,6 C 5,6 C 85 % 1006,3 hPa 0,0 l/m 0 min 0 min 0 W/m 27,2 km/h (4 Bft)
13.01.2015 22:52 7,6 C 5,6 C 85 % 1006,3 hPa 0,0 l/m 0 min 0 min 0 W/m 25,1 km/h (4 Bft)
13.01.2015 22:54 7,6 C 5,6 C 85 % 1006,3 hPa 0,0 l/m 0 min 0 min 0 W/m 20,9 km/h (4 Bft)
13.01.2015 22:56 7,6 C 5,6 C 85 % 1006,4 hPa 0,0 l/m 0 min 0 min 0 W/m 25,1 km/h (4 Bft)
13.01.2015 22:58 7,6 C 5,6 C 84 % 1006,4 hPa 0,0 l/m 0 min 0 min 0 W/m 37,7 km/h (5 Bft)
13.01.2015 23:00 7,6 C 5,6 C 84 % 1006,3 hPa 0,0 l/m 0 min 0 min 0 W/m 25,1 km/h (4 Bft)
13.01.2015 23:02 7,7 C 5,6 C 84 % 1006,4 hPa 0,0 l/m 0 min 0 min 0 W/m 20,9 km/h (4 Bft)
13.01.2015 23:04 7,7 C 5,6 C 84 % 1006,4 hPa 0,0 l/m 0 min 0 min 0 W/m 16,7 km/h (3 Bft)
13.01.2015 23:06 7,7 C 5,6 C 84 % 1006,4 hPa 0,0 l/m 0 min 0 min 0 W/m 23,0 km/h (4 Bft)
13.01.2015 23:08 7,7 C 5,6 C 84 % 1006,4 hPa 0,0 l/m 0 min 0 min 0 W/m 27,2 km/h (4 Bft)
13.01.2015 23:10 7,7 C 5,6 C 84 % 1006,5 hPa 0,0 l/m 0 min 0 min 0 W/m 29,3 km/h (5 Bft)
13.01.2015 23:12 7,7 C 5,6 C 83 % 1006,4 hPa 0,0 l/m 0 min 0 min 0 W/m 23,0 km/h (4 Bft)
13.01.2015 23:14 7,7 C 5,6 C 83 % 1006,5 hPa 0,0 l/m 0 min 0 min 0 W/m 27,2 km/h (4 Bft)
13.01.2015 23:16 7,7 C 5,6 C 83 % 1006,4 hPa 0,0 l/m 0 min 0 min 0 W/m 23,0 km/h (4 Bft)
13.01.2015 23:18 7,7 C 5,6 C 83 % 1006,4 hPa 0,0 l/m 0 min 0 min 0 W/m 14,6 km/h (3 Bft)
13.01.2015 23:20 7,7 C 5,6 C 83 % 1006,4 hPa 0,0 l/m 0 min 0 min 0 W/m 25,1 km/h (4 Bft)
13.01.2015 23:22 7,7 C 5,6 C 83 % 1006,4 hPa 0,0 l/m 0 min 0 min 0 W/m 16,7 km/h (3 Bft)
13.01.2015 23:24 7,7 C 5,6 C 83 % 1006,4 hPa 0,0 l/m 0 min 0 min 0 W/m 20,9 km/h (4 Bft)
13.01.2015 23:26 7,7 C 5,6 C 83 % 1006,4 hPa 0,0 l/m 0 min 0 min 0 W/m 20,9 km/h (4 Bft)
13.01.2015 23:28 7,6 C 5,6 C 83 % 1006,4 hPa 0,0 l/m 0 min 0 min 0 W/m 23,0 km/h (4 Bft)
13.01.2015 23:30 7,6 C 5,6 C 83 % 1006,3 hPa 0,0 l/m 0 min 0 min 0 W/m 20,9 km/h (4 Bft)
13.01.2015 23:32 7,6 C 5,6 C 83 % 1006,3 hPa 0,0 l/m 0 min 0 min 0 W/m 20,9 km/h (4 Bft)
13.01.2015 23:34 7,6 C 5,6 C 83 % 1006,3 hPa 0,0 l/m 0 min 0 min 0 W/m 14,6 km/h (3 Bft)
13.01.2015 23:36 7,6 C 5,6 C 83 % 1006,3 hPa 0,0 l/m 0 min 0 min 0 W/m 27,2 km/h (4 Bft)
13.01.2015 23:38 7,6 C 5,6 C 83 % 1006,2 hPa 0,0 l/m 0 min 0 min 0 W/m 18,8 km/h (3 Bft)
13.01.2015 23:40 7,6 C 5,6 C 83 % 1006,2 hPa 0,0 l/m 0 min 0 min 0 W/m 18,8 km/h (3 Bft)
13.01.2015 23:42 7,6 C 5,6 C 83 % 1006,2 hPa 0,0 l/m 0 min 0 min 0 W/m 16,7 km/h (3 Bft)
13.01.2015 23:44 7,5 C 5,6 C 83 % 1006,2 hPa 0,0 l/m 0 min 0 min 0 W/m 25,1 km/h (4 Bft)
13.01.2015 23:46 7,5 C 5,6 C 83 % 1006,2 hPa 0,0 l/m 0 min 0 min 0 W/m 20,9 km/h (4 Bft)
13.01.2015 23:48 7,5 C 5,6 C 83 % 1006,2 hPa 0,0 l/m 0 min 0 min 0 W/m 25,1 km/h (4 Bft)
13.01.2015 23:50 7,5 C 5,6 C 83 % 1006,2 hPa 0,0 l/m 0 min 0 min 0 W/m 20,9 km/h (4 Bft)
13.01.2015 23:52 7,4 C 5,6 C 83 % 1006,2 hPa 0,0 l/m 0 min 0 min 0 W/m 16,7 km/h (3 Bft)
13.01.2015 23:54 7,4 C 5,6 C 83 % 1006,2 hPa 0,0 l/m 0 min 0 min 0 W/m 16,7 km/h (3 Bft)
13.01.2015 23:56 7,4 C 5,6 C 84 % 1006,1 hPa 0,0 l/m 0 min 0 min 0 W/m 16,7 km/h (3 Bft)
13.01.2015 23:58 7,4 C 5,6 C 84 % 1006,1 hPa 0,0 l/m 0 min 0 min 0 W/m 16,7 km/h (3 Bft)
_ Min-Zeit 18:42 20:44 11:38 14:00 - - - - 16:52
Minimum _ 7,4 C 5,0 C 71 % 1002,8 hPa - - - - 12,6 km/h (3 Bft)
_ Max-Zeit 11:40 11:32 18:08 00:12 12:08 09:15 01:58 10:30 03:10
Maximum _ 11,7 C 10,6 C 94 % 1011,3 hPa 0,2 l/m 2 min 2 min 167 W/m 62,8 km/h
S-SW (8 Bft)
Durchschnitt _ 9,4 C 7,5 C 84 % 1006,5 hPa #2,0 l/m #34 min. #3:44 h 48 W/m 32,8 km/h (5 Bft)
© 2015 W. Hausmann